Observation data for Lesley on 01/19/2019      Previous  Date  Next       Current Mesonet Observations  Soil Data  Daily Summary Page  Observations in Plain Language
KLE1 190600Z 34019G24KT 03/M03 A3003 RMK A01 T00261027  RH  068%=      5-min Rain = 0
KLE1 190601Z 35022G27KT 03/M03 A3003 RMK A01 T00261028  RH  068%=      5-min Rain = 0
KLE1 190602Z 34016KT 03/M03 A3003 RMK A01 T00261028  RH  067%=      5-min Rain = 0
KLE1 190603Z 34016KT 03/M03 A3003 RMK A01 T00261028  RH  068%=      5-min Rain = 0
KLE1 190604Z 34016KT 03/M03 A3003 RMK A01 T00261028  RH  067%=      5-min Rain = 0
KLE1 190605Z 33016KT 03/M03 A3003 RMK A01 T00271028  RH  067%=      5-min Rain = 0
KLE1 190606Z 34018G27KT 03/M03 A3003 RMK A01 T00271027  RH  068%=      5-min Rain = 0
KLE1 190607Z 34024KT 03/M03 A3003 RMK A01 T00271028  RH  067%=      5-min Rain = 0
KLE1 190608Z 34019KT 03/M03 A3003 RMK A01 T00271028  RH  067%=      5-min Rain = 0
KLE1 190609Z 34016KT 03/M03 A3004 RMK A01 T00271028  RH  067%=      5-min Rain = 0
KLE1 190610Z 33019G25KT 03/M03 A3003 RMK A01 T00271028  RH  067%=      5-min Rain = 0
KLE1 190611Z 34020KT 03/M03 A3004 RMK A01 T00271029  RH  067%=      5-min Rain = 0
KLE1 190612Z 35019G25KT 03/M03 A3004 RMK A01 T00271028  RH  067%=      5-min Rain = 0
KLE1 190613Z 34023KT 03/M03 A3004 RMK A01 T00271029  RH  067%=      5-min Rain = 0
KLE1 190614Z 34017KT 03/M03 A3004 RMK A01 T00271029  RH  067%=      5-min Rain = 0
KLE1 190615Z 33022G29KT 03/M03 A3004 RMK A01 T00281028  RH  067%=      5-min Rain = 0
KLE1 190616Z 34025KT 03/M03 A3004 RMK A01 T00281028  RH  067%=      5-min Rain = 0
KLE1 190617Z 33021KT 03/M03 A3004 RMK A01 T00281028  RH  067%=      5-min Rain = 0
KLE1 190618Z 32010G15KT 03/M03 A3005 RMK A01 T00281028  RH  067%=      5-min Rain = 0
KLE1 190619Z 32010KT 03/M03 A3005 RMK A01 T00281027  RH  067%=      5-min Rain = 0
KLE1 190620Z 33012KT 03/M03 A3005 RMK A01 T00271027  RH  067%=      5-min Rain = 0
KLE1 190621Z 33016G23KT 03/M03 A3005 RMK A01 T00271027  RH  068%=      5-min Rain = 0
KLE1 190622Z 33022KT 03/M03 A3005 RMK A01 T00271027  RH  068%=      5-min Rain = 0
KLE1 190623Z 34023KT 03/M03 A3005 RMK A01 T00271027  RH  067%=      5-min Rain = 0
KLE1 190624Z 34025G30KT 03/M03 A3005 RMK A01 T00281027  RH  067%=      5-min Rain = 0
KLE1 190625Z 34018KT 03/M03 A3005 RMK A01 T00281028  RH  067%=      5-min Rain = 0
KLE1 190626Z 33021G29KT 03/M03 A3005 RMK A01 T00281027  RH  067%=      5-min Rain = 0
KLE1 190627Z 33021G27KT 03/M03 A3005 RMK A01 T00281028  RH  067%=      5-min Rain = 0
KLE1 190628Z 34021G26KT 03/M03 A3005 RMK A01 T00281027  RH  067%=      5-min Rain = 0
KLE1 190629Z 34021G26KT 03/M03 A3005 RMK A01 T00281027  RH  067%=      5-min Rain = 0
KLE1 190630Z 34020G25KT 03/M03 A3005 RMK A01 T00281027  RH  067%=      5-min Rain = 0
KLE1 190631Z 34019G24KT 03/M03 A3005 RMK A01 T00281027  RH  067%=      5-min Rain = 0
KLE1 190632Z 33019G24KT 03/M03 A3005 RMK A01 T00281027  RH  067%=      5-min Rain = 0
KLE1 190633Z 33019KT 03/M03 A3005 RMK A01 T00271027  RH  067%=      5-min Rain = 0
KLE1 190634Z 33024KT 03/M03 A3005 RMK A01 T00281026  RH  067%=      5-min Rain = 0
KLE1 190635Z 32020G26KT 03/M03 A3006 RMK A01 T00281026  RH  067%=      5-min Rain = 0
KLE1 190636Z 32022G27KT 03/M03 A3005 RMK A01 T00281026  RH  067%=      5-min Rain = 0
KLE1 190637Z 32027G32KT 03/M03 A3005 RMK A01 T00281026  RH  067%=      5-min Rain = 0
KLE1 190638Z 33027G32KT 03/M03 A3005 RMK A01 T00281026  RH  067%=      5-min Rain = 0
KLE1 190639Z 34027KT 03/M03 A3006 RMK A01 T00291026  RH  067%=      5-min Rain = 0
KLE1 190640Z 34024KT 03/M03 A3006 RMK A01 T00291026  RH  067%=      5-min Rain = 0
KLE1 190641Z 33023KT 03/M03 A3006 RMK A01 T00281026  RH  067%=      5-min Rain = 0
KLE1 190642Z 33021G26KT 03/M03 A3006 RMK A01 T00281026  RH  067%=      5-min Rain = 0
KLE1 190643Z 33017G23KT 03/M03 A3006 RMK A01 T00291025  RH  068%=      5-min Rain = 0
KLE1 190644Z 33020KT 03/M03 A3006 RMK A01 T00291025  RH  068%=      5-min Rain = 0
KLE1 190645Z 33023KT 03/M03 A3006 RMK A01 T00291025  RH  068%=      5-min Rain = 0
KLE1 190646Z 34022G28KT 03/M03 A3006 RMK A01 T00291025  RH  068%=      5-min Rain = 0
KLE1 190647Z 33018KT 03/M03 A3006 RMK A01 T00291025  RH  068%=      5-min Rain = 0
KLE1 190648Z 32016G22KT 03/M03 A3006 RMK A01 T00291025  RH  068%=      5-min Rain = 0
KLE1 190649Z 33022KT 03/M02 A3006 RMK A01 T00291024  RH  068%=      5-min Rain = 0
KLE1 190650Z 34020G26KT 03/M02 A3006 RMK A01 T00291024  RH  068%=      5-min Rain = 0
KLE1 190651Z 33021G26KT 03/M03 A3006 RMK A01 T00281025  RH  068%=      5-min Rain = 0
KLE1 190652Z 34022KT 03/M03 A3006 RMK A01 T00281025  RH  068%=      5-min Rain = 0
KLE1 190653Z 33022G28KT 03/M03 A3006 RMK A01 T00281025  RH  068%=      5-min Rain = 0
KLE1 190654Z 33023KT 03/M03 A3006 RMK A01 T00281025  RH  068%=      5-min Rain = 0
KLE1 190655Z 33024G29KT 03/M03 A3006 RMK A01 T00281025  RH  068%=      5-min Rain = 0
KLE1 190656Z 34022G27KT 03/M02 A3006 RMK A01 T00281024  RH  068%=      5-min Rain = 0
KLE1 190657Z 33020KT 03/M02 A3006 RMK A01 T00281024  RH  068%=      5-min Rain = 0
KLE1 190658Z 33019KT 03/M02 A3006 RMK A01 T00281024  RH  068%=      5-min Rain = 0
KLE1 190659Z 33018KT 03/M02 A3006 RMK A01 T00281024  RH  069%=      5-min Rain = 0
KLE1 190700Z 33018KT 03/M02 A3006 RMK A01 T00281024  RH  069%=      5-min Rain = 0
KLE1 190701Z 33021KT 03/M02 A3006 RMK A01 T00281024  RH  069%=      5-min Rain = 0
KLE1 190702Z 34021KT 03/M02 A3006 RMK A01 T00281024  RH  069%=      5-min Rain = 0
KLE1 190703Z 34021KT 03/M02 A3006 RMK A01 T00281024  RH  069%=      5-min Rain = 0
KLE1 190704Z 33020KT 03/M02 A3006 RMK A01 T00281024  RH  069%=      5-min Rain = 0
KLE1 190705Z 33020G25KT 03/M02 A3006 RMK A01 T00281024  RH  069%=      5-min Rain = 0
KLE1 190706Z 34018KT 03/M02 A3006 RMK A01 T00281024  RH  069%=      5-min Rain = 0
KLE1 190707Z 33018KT 03/M02 A3006 RMK A01 T00281024  RH  069%=      5-min Rain = 0
KLE1 190708Z 33020G26KT 03/M02 A3006 RMK A01 T00281024  RH  069%=      5-min Rain = 0
KLE1 190709Z 33025G30KT 03/M02 A3006 RMK A01 T00281024  RH  069%=      5-min Rain = 0
KLE1 190710Z 34026KT 03/M03 A3006 RMK A01 T00281026  RH  068%=      5-min Rain = 0
KLE1 190711Z 33027G32KT 03/M03 A3006 RMK A01 T00281026  RH  068%=      5-min Rain = 0
KLE1 190712Z 34024G31KT 03/M03 A3006 RMK A01 T00281027  RH  067%=      5-min Rain = 0
KLE1 190713Z 34027G33KT 03/M03 A3006 RMK A01 T00281027  RH  067%=      5-min Rain = 0
KLE1 190714Z 34024KT 03/M03 A3006 RMK A01 T00281026  RH  067%=      5-min Rain = 0
KLE1 190715Z 34021KT 03/M03 A3006 RMK A01 T00281026  RH  067%=      5-min Rain = 0
KLE1 190716Z 34028G35KT 03/M03 A3006 RMK A01 T00281026  RH  068%=      5-min Rain = 0
KLE1 190717Z 34025KT 03/M03 A3006 RMK A01 T00281026  RH  068%=      5-min Rain = 0
KLE1 190718Z 33031KT 03/M03 A3006 RMK A01 T00281026  RH  068%=      5-min Rain = 0
KLE1 190719Z 34028KT 03/M03 A3006 RMK A01 T00281026  RH  068%=      5-min Rain = 0
KLE1 190720Z 34028KT 03/M03 A3006 RMK A01 T00281025  RH  068%=      5-min Rain = 0
KLE1 190721Z 33024G30KT 03/M03 A3006 RMK A01 T00281025  RH  068%=      5-min Rain = 0
KLE1 190722Z 33023G31KT 03/M02 A3006 RMK A01 T00281024  RH  068%=      5-min Rain = 0
KLE1 190723Z 33023KT 03/M02 A3006 RMK A01 T00281024  RH  069%=      5-min Rain = 0
KLE1 190724Z 33023G30KT 03/M02 A3006 RMK A01 T00281024  RH  069%=      5-min Rain = 0
KLE1 190725Z 33025G32KT 03/M02 A3006 RMK A01 T00281023  RH  069%=      5-min Rain = 0
KLE1 190726Z 33025G34KT 03/M02 A3006 RMK A01 T00271023  RH  070%=      5-min Rain = 0
KLE1 190727Z 33028KT 03/M02 A3006 RMK A01 T00271022  RH  070%=      5-min Rain = 0
KLE1 190728Z 33028KT 03/M02 A3006 RMK A01 T00271022  RH  070%=      5-min Rain = 0
KLE1 190729Z 33027G32KT 03/M02 A3006 RMK A01 T00271022  RH  070%=      5-min Rain = 0
KLE1 190730Z 33028G34KT 03/M02 A3006 RMK A01 T00271022  RH  070%=      5-min Rain = 0
KLE1 190731Z 33028G33KT 03/M02 A3006 RMK A01 T00271022  RH  070%=      5-min Rain = 0
KLE1 190732Z 33029KT 03/M02 A3006 RMK A01 T00271022  RH  070%=      5-min Rain = 0
KLE1 190733Z 33026G32KT 03/M02 A3006 RMK A01 T00261022  RH  070%=      5-min Rain = 0
KLE1 190734Z 33028G33KT 03/M02 A3006 RMK A01 T00271022  RH  071%=      5-min Rain = 0
KLE1 190735Z 34023KT 03/M02 A3006 RMK A01 T00261022  RH  071%=      5-min Rain = 0
KLE1 190736Z 33022G28KT 03/M02 A3006 RMK A01 T00261022  RH  071%=      5-min Rain = 0
KLE1 190737Z 33021KT 03/M02 A3006 RMK A01 T00261021  RH  071%=      5-min Rain = 0
KLE1 190738Z 33020KT 03/M02 A3006 RMK A01 T00261021  RH  071%=      5-min Rain = 0
KLE1 190739Z 33022KT 03/M02 A3006 RMK A01 T00261021  RH  071%=      5-min Rain = 0
KLE1 190740Z 33025KT 03/M02 A3006 RMK A01 T00261021  RH  071%=      5-min Rain = 0
KLE1 190741Z 34021G26KT 03/M02 A3006 RMK A01 T00261021  RH  071%=      5-min Rain = 0
KLE1 190742Z 33019KT 03/M02 A3006 RMK A01 T00261021  RH  071%=      5-min Rain = 0
KLE1 190743Z 33018KT 03/M02 A3006 RMK A01 T00271020  RH  071%=      5-min Rain = 0
KLE1 190744Z 33019G24KT 03/M02 A3006 RMK A01 T00261020  RH  071%=      5-min Rain = 0
KLE1 190745Z 34022KT 03/M02 A3006 RMK A01 T00261020  RH  072%=      5-min Rain = 0
KLE1 190746Z 32025G30KT 03/M02 A3006 RMK A01 T00271019  RH  072%=      5-min Rain = 0
KLE1 190747Z 33022G27KT 03/M02 A3006 RMK A01 T00261019  RH  072%=      5-min Rain = 0
KLE1 190748Z 33023KT 03/M02 A3006 RMK A01 T00261019  RH  072%=      5-min Rain = 0
KLE1 190749Z 33021KT 03/M02 A3006 RMK A01 T00261019  RH  072%=      5-min Rain = 0
KLE1 190750Z 33023KT 03/M02 A3007 RMK A01 T00261019  RH  072%=      5-min Rain = 0
KLE1 190751Z 33020KT 03/M02 A3007 RMK A01 T00261019  RH  072%=      5-min Rain = 0
KLE1 190752Z 32020KT 03/M02 A3007 RMK A01 T00261018  RH  072%=      5-min Rain = 0
KLE1 190753Z 33020KT 03/M02 A3007 RMK A01 T00261018  RH  072%=      5-min Rain = 0
KLE1 190754Z 32018KT 03/M02 A3007 RMK A01 T00271018  RH  072%=      5-min Rain = 0
KLE1 190755Z 32022KT 03/M02 A3007 RMK A01 T00261018  RH  072%=      5-min Rain = 0
KLE1 190756Z 32021G26KT 03/M02 A3007 RMK A01 T00261018  RH  073%=      5-min Rain = 0
KLE1 190757Z 33018G23KT 03/M02 A3007 RMK A01 T00261018  RH  073%=      5-min Rain = 0
KLE1 190758Z 33021KT 03/M02 A3007 RMK A01 T00261018  RH  073%=      5-min Rain = 0
KLE1 190759Z 33017KT 03/M02 A3007 RMK A01 T00261018  RH  073%=      5-min Rain = 0
KLE1 190800Z 32020KT 03/M02 A3007 RMK A01 T00271017  RH  073%=      5-min Rain = 0
KLE1 190801Z 33023G32KT 03/M02 A3007 RMK A01 T00261018  RH  073%=      5-min Rain = 0
KLE1 190802Z 32025G31KT 03/M02 A3007 RMK A01 T00271019  RH  072%=      5-min Rain = 0
KLE1 190803Z 32025KT 03/M02 A3007 RMK A01 T00281020  RH  071%=      5-min Rain = 0
KLE1 190804Z 32021G26KT 03/M02 A3007 RMK A01 T00281020  RH  071%=      5-min Rain = 0
KLE1 190805Z 32021KT 03/M02 A3007 RMK A01 T00281020  RH  070%=      5-min Rain = 0
KLE1 190806Z 32028G34KT 03/M02 A3007 RMK A01 T00281022  RH  070%=      5-min Rain = 0
KLE1 190807Z 32028G36KT 03/M03 A3007 RMK A01 T00281026  RH  068%=      5-min Rain = 0
KLE1 190808Z 32031G37KT 03/M03 A3007 RMK A01 T00271029  RH  066%=      5-min Rain = 0
KLE1 190809Z 32029KT 03/M03 A3007 RMK A01 T00261032  RH  066%=      5-min Rain = 0
KLE1 190810Z 32028KT 03/M03 A3007 RMK A01 T00251034  RH  065%=      5-min Rain = 0
KLE1 190811Z 33025KT 02/M03 A3008 RMK A01 T00241034  RH  065%=      5-min Rain = 0
KLE1 190812Z 32029KT 02/M04 A3008 RMK A01 T00241035  RH  065%=      5-min Rain = 0
KLE1 190813Z 32029G38KT 02/M04 A3007 RMK A01 T00241036  RH  065%=      5-min Rain = 0
KLE1 190814Z 33032KT 02/M04 A3008 RMK A01 T00231036  RH  065%=      5-min Rain = 0
KLE1 190815Z 33027KT 02/M04 A3008 RMK A01 T00231036  RH  065%=      5-min Rain = 0
KLE1 190816Z 33022G29KT 02/M04 A3008 RMK A01 T00231036  RH  065%=      5-min Rain = 0
KLE1 190817Z 33029G35KT 02/M04 A3008 RMK A01 T00231036  RH  065%=      5-min Rain = 0
KLE1 190818Z 33028KT 02/M04 A3008 RMK A01 T00231036  RH  065%=      5-min Rain = 0
KLE1 190819Z 34022KT 02/M04 A3009 RMK A01 T00221037  RH  065%=      5-min Rain = 0
KLE1 190820Z 33020KT 02/M04 A3009 RMK A01 T00221036  RH  065%=      5-min Rain = 0
KLE1 190821Z 33022KT 02/M04 A3009 RMK A01 T00221037  RH  065%=      5-min Rain = 0
KLE1 190822Z 33022KT 02/M04 A3009 RMK A01 T00221037  RH  065%=      5-min Rain = 0
KLE1 190823Z 33023KT 02/M04 A3009 RMK A01 T00221037  RH  065%=      5-min Rain = 0
KLE1 190824Z 33021KT 02/M04 A3009 RMK A01 T00221038  RH  065%=      5-min Rain = 0
KLE1 190825Z 33022KT 02/M04 A3009 RMK A01 T00221038  RH  065%=      5-min Rain = 0
KLE1 190826Z 33023G28KT 02/M04 A3009 RMK A01 T00211038  RH  065%=      5-min Rain = 0
KLE1 190827Z 33020KT 02/M04 A3009 RMK A01 T00211038  RH  065%=      5-min Rain = 0
KLE1 190828Z 33018KT 02/M04 A301 RMK A01 T00211039  RH  065%=      5-min Rain = 0
KLE1 190829Z 32019KT 02/M04 A301 RMK A01 T00211038  RH  065%=      5-min Rain = 0
KLE1 190830Z 32023G28KT 02/M04 A301 RMK A01 T00211038  RH  065%=      5-min Rain = 0
KLE1 190831Z 33024G29KT 02/M04 A301 RMK A01 T00211039  RH  065%=      5-min Rain = 0
KLE1 190832Z 33023KT 02/M04 A301 RMK A01 T00211039  RH  064%=      5-min Rain = 0
KLE1 190833Z 33018KT 02/M04 A301 RMK A01 T00211039  RH  065%=      5-min Rain = 0
KLE1 190834Z 33019G24KT 02/M04 A301 RMK A01 T00211039  RH  065%=      5-min Rain = 0
KLE1 190835Z 33019G24KT 02/M04 A301 RMK A01 T00201040  RH  065%=      5-min Rain = 0
KLE1 190836Z 33022G27KT 02/M04 A301 RMK A01 T00201040  RH  064%=      5-min Rain = 0
KLE1 190837Z 33023KT 02/M04 A301 RMK A01 T00201041  RH  064%=      5-min Rain = 0
KLE1 190838Z 33022G27KT 02/M04 A301 RMK A01 T00201041  RH  064%=      5-min Rain = 0
KLE1 190839Z 33020G26KT 02/M04 A301 RMK A01 T00191041  RH  064%=      5-min Rain = 0
KLE1 190840Z 33022KT 02/M04 A301 RMK A01 T00191041  RH  064%=      5-min Rain = 0
KLE1 190841Z 33019KT 02/M04 A301 RMK A01 T00191041  RH  065%=      5-min Rain = 0
KLE1 190842Z 33018KT 02/M04 A301 RMK A01 T00181041  RH  065%=      5-min Rain = 0
KLE1 190843Z 33023KT 02/M04 A301 RMK A01 T00181041  RH  065%=      5-min Rain = 0
KLE1 190844Z 33025G30KT 02/M04 A301 RMK A01 T00181041  RH  065%=      5-min Rain = 0
KLE1 190845Z 33026G31KT 02/M04 A301 RMK A01 T00181042  RH  065%=      5-min Rain = 0
KLE1 190846Z 33028G35KT 02/M04 A301 RMK A01 T00171042  RH  065%=      5-min Rain = 0
KLE1 190847Z 33025G30KT 02/M04 A301 RMK A01 T00171042  RH  065%=      5-min Rain = 0
KLE1 190848Z 33024G29KT 02/M04 A301 RMK A01 T00171042  RH  065%=      5-min Rain = 0
KLE1 190849Z 33021G26KT 02/M04 A301 RMK A01 T00171042  RH  065%=      5-min Rain = 0
KLE1 190850Z 33021G26KT 02/M04 A301 RMK A01 T00171043  RH  065%=      5-min Rain = 0
KLE1 190851Z 34023G30KT 02/M04 A301 RMK A01 T00171044  RH  064%=      5-min Rain = 0
KLE1 190852Z 34024G30KT 02/M05 A301 RMK A01 T00161046  RH  063%=      5-min Rain = 0
KLE1 190853Z 33026G31KT 02/M05 A301 RMK A01 T00161046  RH  063%=      5-min Rain = 0
KLE1 190854Z 34026G31KT 02/M05 A301 RMK A01 T00161047  RH  063%=      5-min Rain = 0
KLE1 190855Z 34023G29KT 02/M05 A3011 RMK A01 T00161047  RH  063%=      5-min Rain = 0
KLE1 190856Z 33023G28KT 02/M05 A3011 RMK A01 T00161047  RH  063%=      5-min Rain = 0
KLE1 190857Z 33025G31KT 02/M05 A3011 RMK A01 T00161047  RH  063%=      5-min Rain = 0
KLE1 190858Z 33029G34KT 02/M05 A3011 RMK A01 T00161047  RH  063%=      5-min Rain = 0
KLE1 190859Z 33024KT 02/M05 A3011 RMK A01 T00161046  RH  063%=      5-min Rain = 0
KLE1 190900Z 34023KT 02/M05 A3011 RMK A01 T00151046  RH  064%=      5-min Rain = 0
KLE1 190901Z 33021KT 02/M05 A3011 RMK A01 T00151046  RH  064%=      5-min Rain = 0
KLE1 190902Z 33020KT 02/M05 A3011 RMK A01 T00151045  RH  064%=      5-min Rain = 0
KLE1 190903Z 33022KT 02/M05 A3011 RMK A01 T00151045  RH  065%=      5-min Rain = 0
KLE1 190904Z 33021G26KT 02/M04 A3011 RMK A01 T00151044  RH  065%=      5-min Rain = 0
KLE1 190905Z 34020G26KT 02/M04 A3012 RMK A01 T00151044  RH  065%=      5-min Rain = 0
KLE1 190906Z 33021G27KT 02/M04 A3011 RMK A01 T00151043  RH  065%=      5-min Rain = 0
KLE1 190907Z 33024KT 02/M04 A3011 RMK A01 T00151043  RH  065%=      5-min Rain = 0
KLE1 190908Z 32021G29KT 02/M04 A3011 RMK A01 T00151043  RH  065%=      5-min Rain = 0
KLE1 190909Z 33018G23KT 02/M04 A3012 RMK A01 T00151043  RH  065%=      5-min Rain = 0
KLE1 190910Z 33023G28KT 01/M04 A3011 RMK A01 T00141043  RH  065%=      5-min Rain = 0
KLE1 190911Z 33024KT 01/M04 A3011 RMK A01 T00141043  RH  065%=      5-min Rain = 0
KLE1 190912Z 33022G29KT 01/M04 A3012 RMK A01 T00141043  RH  065%=      5-min Rain = 0
KLE1 190913Z 32025G30KT 01/M04 A3011 RMK A01 T00141044  RH  065%=      5-min Rain = 0
KLE1 190914Z 33023G29KT 01/M04 A3012 RMK A01 T00141044  RH  065%=      5-min Rain = 0
KLE1 190915Z 33024KT 01/M04 A3012 RMK A01 T00141044  RH  065%=      5-min Rain = 0
KLE1 190916Z 33020KT 01/M04 A3012 RMK A01 T00141044  RH  065%=      5-min Rain = 0
KLE1 190917Z 32015G20KT 01/M04 A3012 RMK A01 T00141044  RH  065%=      5-min Rain = 0
KLE1 190918Z 32017G23KT 01/M04 A3012 RMK A01 T00141043  RH  066%=      5-min Rain = 0
KLE1 190919Z 32024G31KT 01/M04 A3012 RMK A01 T00131044  RH  066%=      5-min Rain = 0
KLE1 190920Z 32025G30KT 01/M05 A3012 RMK A01 T00131045  RH  065%=      5-min Rain = 0
KLE1 190921Z 32027KT 01/M05 A3012 RMK A01 T00131045  RH  065%=      5-min Rain = 0
KLE1 190922Z 32027G33KT 01/M05 A3012 RMK A01 T00121046  RH  065%=      5-min Rain = 0
KLE1 190923Z 32025KT 01/M05 A3012 RMK A01 T00121046  RH  065%=      5-min Rain = 0
KLE1 190924Z 32027KT 01/M05 A3012 RMK A01 T00121046  RH  065%=      5-min Rain = 0
KLE1 190925Z 32024G29KT 01/M05 A3012 RMK A01 T00121047  RH  065%=      5-min Rain = 0
KLE1 190926Z 33023G28KT 01/M05 A3012 RMK A01 T00111047  RH  065%=      5-min Rain = 0
KLE1 190927Z 32021G27KT 01/M05 A3012 RMK A01 T00111047  RH  065%=      5-min Rain = 0
KLE1 190928Z 32023KT 01/M05 A3012 RMK A01 T00111047  RH  065%=      5-min Rain = 0
KLE1 190929Z 32028KT 01/M05 A3012 RMK A01 T00111048  RH  065%=      5-min Rain = 0
KLE1 190930Z 33027G33KT 01/M05 A3012 RMK A01 T00111048  RH  065%=      5-min Rain = 0
KLE1 190931Z 33028G33KT 01/M05 A3012 RMK A01 T00111048  RH  065%=      5-min Rain = 0
KLE1 190932Z 33022G28KT 01/M05 A3012 RMK A01 T00111048  RH  065%=      5-min Rain = 0
KLE1 190933Z 33021G26KT 01/M05 A3012 RMK A01 T00111048  RH  065%=      5-min Rain = 0
KLE1 190934Z 33024G31KT 01/M05 A3013 RMK A01 T00101049  RH  065%=      5-min Rain = 0
KLE1 190935Z 33023KT 01/M05 A3013 RMK A01 T00101049  RH  064%=      5-min Rain = 0
KLE1 190936Z 33029G37KT 01/M05 A3013 RMK A01 T00101050  RH  064%=      5-min Rain = 0
KLE1 190937Z 33026G34KT 01/M05 A3013 RMK A01 T00101051  RH  064%=      5-min Rain = 0
KLE1 190938Z 33027G33KT 01/M05 A3013 RMK A01 T00101051  RH  064%=      5-min Rain = 0
KLE1 190939Z 33029KT 01/M05 A3013 RMK A01 T00111051  RH  063%=      5-min Rain = 0
KLE1 190940Z 33026G31KT 01/M05 A3013 RMK A01 T00111051  RH  063%=      5-min Rain = 0
KLE1 190941Z 33022KT 01/M05 A3013 RMK A01 T00111051  RH  063%=      5-min Rain = 0
KLE1 190942Z 32021G26KT 01/M05 A3013 RMK A01 T00111051  RH  063%=      5-min Rain = 0
KLE1 190943Z 32020KT 01/M05 A3013 RMK A01 T00111051  RH  063%=      5-min Rain = 0
KLE1 190944Z 33022G27KT 01/M05 A3013 RMK A01 T00101051  RH  064%=      5-min Rain = 0
KLE1 190945Z 32021KT 01/M05 A3013 RMK A01 T00101051  RH  064%=      5-min Rain = 0
KLE1 190946Z 32020KT 01/M05 A3013 RMK A01 T00101050  RH  064%=      5-min Rain = 0
KLE1 190947Z 32018G25KT 01/M05 A3013 RMK A01 T00101050  RH  064%=      5-min Rain = 0
KLE1 190948Z 33025KT 01/M05 A3013 RMK A01 T00101050  RH  064%=      5-min Rain = 0
KLE1 190949Z 32022KT 01/M05 A3013 RMK A01 T00101050  RH  065%=      5-min Rain = 0
KLE1 190950Z 33023KT 01/M05 A3013 RMK A01 T00101049  RH  065%=      5-min Rain = 0
KLE1 190951Z 33021KT 01/M05 A3013 RMK A01 T00091050  RH  065%=      5-min Rain = 0
KLE1 190952Z 33022KT 01/M05 A3014 RMK A01 T00091050  RH  065%=      5-min Rain = 0
KLE1 190953Z 32027G34KT 01/M05 A3014 RMK A01 T00091050  RH  065%=      5-min Rain = 0
KLE1 190954Z 32028G33KT 01/M05 A3013 RMK A01 T00091051  RH  064%=      5-min Rain = 0
KLE1 190955Z 33028KT 01/M05 A3014 RMK A01 T00091052  RH  064%=      5-min Rain = 0
KLE1 190956Z 32026G31KT 01/M05 A3014 RMK A01 T00091053  RH  064%=      5-min Rain = 0
KLE1 190957Z 33025KT 01/M05 A3014 RMK A01 T00081053  RH  064%=      5-min Rain = 0
KLE1 190958Z 32028G33KT 01/M05 A3014 RMK A01 T00081054  RH  064%=      5-min Rain = 0
KLE1 190959Z 33027G32KT 01/M05 A3014 RMK A01 T00081054  RH  063%=      5-min Rain = 0
KLE1 191000Z 33026G31KT 01/M06 A3014 RMK A01 T00071055  RH  063%=      5-min Rain = 0
KLE1 191001Z 32025KT 01/M06 A3014 RMK A01 T00071055  RH  063%=      5-min Rain = 0
KLE1 191002Z 33024KT 01/M06 A3014 RMK A01 T00071056  RH  063%=      5-min Rain = 0
KLE1 191003Z 33027G32KT 01/M06 A3014 RMK A01 T00061056  RH  063%=      5-min Rain = 0
KLE1 191004Z 33025G30KT 01/M06 A3014 RMK A01 T00061057  RH  063%=      5-min Rain = 0
KLE1 191005Z 33023G28KT 01/M06 A3014 RMK A01 T00061057  RH  063%=      5-min Rain = 0
KLE1 191006Z 33022G29KT 01/M06 A3015 RMK A01 T00051057  RH  063%=      5-min Rain = 0
KLE1 191007Z 33027G33KT 01/M06 A3014 RMK A01 T00051057  RH  063%=      5-min Rain = 0
KLE1 191008Z 33024G30KT 00/M06 A3015 RMK A01 T00041058  RH  063%=      5-min Rain = 0
KLE1 191009Z 33023KT 00/M06 A3015 RMK A01 T00041058  RH  063%=      5-min Rain = 0
KLE1 191010Z 33022G32KT 00/M06 A3015 RMK A01 T00031058  RH  063%=      5-min Rain = 0
KLE1 191011Z 33029G36KT 00/M06 A3015 RMK A01 T00031058  RH  063%=      5-min Rain = 0
KLE1 191012Z 33028G35KT 00/M06 A3015 RMK A01 T00031059  RH  063%=      5-min Rain = 0
KLE1 191013Z 33026G31KT 00/M06 A3015 RMK A01 T00021060  RH  063%=      5-min Rain = 0
KLE1 191014Z 33027G32KT 00/M06 A3015 RMK A01 T00021060  RH  063%=      5-min Rain = 0
KLE1 191015Z 33025G32KT 00/M06 A3015 RMK A01 T00021060  RH  063%=      5-min Rain = 0
KLE1 191016Z 33026KT 00/M06 A3015 RMK A01 T00021060  RH  063%=      5-min Rain = 0
KLE1 191017Z 33022G27KT 00/M06 A3015 RMK A01 T00021060  RH  063%=      5-min Rain = 0
KLE1 191018Z 33025G31KT 00/M06 A3015 RMK A01 T00011060  RH  063%=      5-min Rain = 0
KLE1 191019Z 34026G32KT 00/M06 A3015 RMK A01 T00011060  RH  063%=      5-min Rain = 0
KLE1 191020Z 34023KT 00/M06 A3015 RMK A01 T00011060  RH  063%=      5-min Rain = 0
KLE1 191021Z 33028G33KT 00/M06 A3015 RMK A01 T00011060  RH  063%=      5-min Rain = 0
KLE1 191022Z 33026G31KT 00/M06 A3015 RMK A01 T00011060  RH  064%=      5-min Rain = 0
KLE1 191023Z 33025KT 00/M06 A3015 RMK A01 T00011060  RH  064%=      5-min Rain = 0
KLE1 191024Z 33021G27KT 00/M06 A3015 RMK A01 T00011060  RH  064%=      5-min Rain = 0
KLE1 191025Z 33022KT 00/06 A3015 RMK A01 T00000-60  RH  064%=      5-min Rain = 0
KLE1 191026Z 33022KT 00/06 A3015 RMK A01 T00000-60  RH  064%=      5-min Rain = 0
KLE1 191027Z 34022G27KT 00/06 A3015 RMK A01 T00000-59  RH  064%=      5-min Rain = 0
KLE1 191028Z 34023KT 00/06 A3015 RMK A01 T00000-59  RH  064%=      5-min Rain = 0
KLE1 191029Z 33027G32KT 00/06 A3015 RMK A01 T00000-59  RH  064%=      5-min Rain = 0
KLE1 191030Z 33024G29KT 00/06 A3015 RMK A01 T00000-59  RH  064%=      5-min Rain = 0
KLE1 191031Z 33024KT 00/06 A3015 RMK A01 T00000-59  RH  064%=      5-min Rain = 0
KLE1 191032Z 33024KT 00/06 A3015 RMK A01 T00000-59  RH  064%=      5-min Rain = 0
KLE1 191033Z 33024KT 00/06 A3015 RMK A01 T00000-59  RH  064%=      5-min Rain = 0
KLE1 191034Z 33022G27KT 00/06 A3016 RMK A01 T00000-59  RH  064%=      5-min Rain = 0
KLE1 191035Z 33022KT 00/06 A3016 RMK A01 T00000-59  RH  064%=      5-min Rain = 0
KLE1 191036Z 33017KT 00/06 A3016 RMK A01 T00-00-59  RH  065%=      5-min Rain = 0
KLE1 191037Z 33019KT 00/06 A3016 RMK A01 T00-00-59  RH  065%=      5-min Rain = 0
KLE1 191038Z 33019KT M00/M06 A3016 RMK A01 T10011059  RH  065%=      5-min Rain = 0
KLE1 191039Z 32019KT M00/M06 A3016 RMK A01 T10011059  RH  065%=      5-min Rain = 0
KLE1 191040Z 33022G27KT M00/M06 A3016 RMK A01 T10011058  RH  065%=      5-min Rain = 0
KLE1 191041Z 33021KT 00/06 A3016 RMK A01 T00-00-58  RH  065%=      5-min Rain = 0
KLE1 191042Z 32017KT M00/M06 A3016 RMK A01 T10011058  RH  065%=      5-min Rain = 0
KLE1 191043Z 33015KT 00/06 A3016 RMK A01 T00-00-57  RH  065%=      5-min Rain = 0
KLE1 191044Z 32018KT M00/M06 A3016 RMK A01 T10011058  RH  066%=      5-min Rain = 0
KLE1 191045Z 32016KT M00/M06 A3016 RMK A01 T10011057  RH  066%=      5-min Rain = 0
KLE1 191046Z 32014KT M00/M06 A3016 RMK A01 T10011057  RH  066%=      5-min Rain = 0
KLE1 191047Z 32016KT M00/M06 A3016 RMK A01 T10011057  RH  066%=      5-min Rain = 0
KLE1 191048Z 32014KT M00/M06 A3016 RMK A01 T10011057  RH  066%=      5-min Rain = 0
KLE1 191049Z 31016KT M00/M06 A3016 RMK A01 T10011057  RH  066%=      5-min Rain = 0
KLE1 191050Z 31017KT M00/M06 A3017 RMK A01 T10011056  RH  066%=      5-min Rain = 0
KLE1 191051Z 32017KT M00/M06 A3017 RMK A01 T10021056  RH  067%=      5-min Rain = 0
KLE1 191052Z 32017KT M00/M06 A3017 RMK A01 T10021057  RH  067%=      5-min Rain = 0
KLE1 191053Z 32017KT M00/M06 A3017 RMK A01 T10021057  RH  067%=      5-min Rain = 0
KLE1 191054Z 32021KT M00/M06 A3017 RMK A01 T10011056  RH  067%=      5-min Rain = 0
KLE1 191055Z 32019KT M00/M06 A3017 RMK A01 T10011056  RH  067%=      5-min Rain = 0
KLE1 191056Z 32020KT M00/M06 A3017 RMK A01 T10011056  RH  066%=      5-min Rain = 0
KLE1 191057Z 32020KT M00/M06 A3017 RMK A01 T10011056  RH  066%=      5-min Rain = 0
KLE1 191058Z 32019KT M00/M06 A3017 RMK A01 T10011057  RH  066%=      5-min Rain = 0
KLE1 191059Z 32020KT M00/M06 A3017 RMK A01 T10011057  RH  066%=      5-min Rain = 0
KLE1 191100Z 33021KT M00/M06 A3017 RMK A01 T10011057  RH  066%=      5-min Rain = 0
KLE1 191101Z 32019KT M00/M06 A3017 RMK A01 T10011057  RH  066%=      5-min Rain = 0
KLE1 191102Z 33022G27KT M00/M06 A3017 RMK A01 T10011057  RH  066%=      5-min Rain = 0
KLE1 191103Z 33023KT M00/M06 A3017 RMK A01 T10011057  RH  066%=      5-min Rain = 0
KLE1 191104Z 33018G24KT M00/M06 A3017 RMK A01 T10011057  RH  066%=      5-min Rain = 0
KLE1 191105Z 33019G24KT M00/M06 A3017 RMK A01 T10011057  RH  066%=      5-min Rain = 0
KLE1 191106Z 33020G25KT 00/06 A3017 RMK A01 T00-00-57  RH  066%=      5-min Rain = 0
KLE1 191107Z 33022KT M00/M06 A3017 RMK A01 T10011057  RH  066%=      5-min Rain = 0
KLE1 191108Z 33021KT M00/M06 A3017 RMK A01 T10011058  RH  066%=      5-min Rain = 0
KLE1 191109Z 33020KT M00/M06 A3017 RMK A01 T10011058  RH  065%=      5-min Rain = 0
KLE1 191110Z 33022G28KT M00/M06 A3017 RMK A01 T10011058  RH  065%=      5-min Rain = 0
KLE1 191111Z 33019G25KT M00/M06 A3017 RMK A01 T10011058  RH  065%=      5-min Rain = 0
KLE1 191112Z 33020KT M00/M06 A3017 RMK A01 T10011058  RH  065%=      5-min Rain = 0
KLE1 191113Z 33017KT M00/M06 A3017 RMK A01 T10011058  RH  065%=      5-min Rain = 0
KLE1 191114Z 33017KT M00/M06 A3017 RMK A01 T10021058  RH  066%=      5-min Rain = 0
KLE1 191115Z 33019KT M00/M06 A3017 RMK A01 T10021058  RH  066%=      5-min Rain = 0
KLE1 191116Z 33017G22KT M00/M06 A3017 RMK A01 T10021058  RH  066%=      5-min Rain = 0
KLE1 191117Z 33016KT M00/M06 A3017 RMK A01 T10021059  RH  066%=      5-min Rain = 0
KLE1 191118Z 33017KT M00/M06 A3017 RMK A01 T10021059  RH  066%=      5-min Rain = 0
KLE1 191119Z 33016KT M00/M06 A3017 RMK A01 T10021059  RH  066%=      5-min Rain = 0
KLE1 191120Z 33018KT M00/M06 A3017 RMK A01 T10021058  RH  066%=      5-min Rain = 0
KLE1 191121Z 32017KT M00/M06 A3017 RMK A01 T10021058  RH  066%=      5-min Rain = 0
KLE1 191122Z 33018KT M00/M06 A3017 RMK A01 T10021058  RH  066%=      5-min Rain = 0
KLE1 191123Z 33016KT M00/M06 A3017 RMK A01 T10021058  RH  066%=      5-min Rain = 0
KLE1 191124Z 33018KT M00/M06 A3017 RMK A01 T10021058  RH  066%=      5-min Rain = 0
KLE1 191125Z 33018KT M00/M06 A3017 RMK A01 T10021057  RH  066%=      5-min Rain = 0
KLE1 191126Z 33018KT M00/M06 A3017 RMK A01 T10021057  RH  066%=      5-min Rain = 0
KLE1 191127Z 32016KT M00/M06 A3017 RMK A01 T10021057  RH  066%=      5-min Rain = 0
KLE1 191128Z 32013KT M00/M06 A3017 RMK A01 T10021057  RH  066%=      5-min Rain = 0
KLE1 191129Z 32016KT M00/M06 A3017 RMK A01 T10021057  RH  066%=      5-min Rain = 0
KLE1 191130Z 32014KT M00/M06 A3017 RMK A01 T10021057  RH  067%=      5-min Rain = 0
KLE1 191131Z 32015KT M00/M06 A3017 RMK A01 T10021056  RH  067%=      5-min Rain = 0
KLE1 191132Z 32015KT M00/M06 A3017 RMK A01 T10021056  RH  067%=      5-min Rain = 0
KLE1 191133Z 32014KT M00/M06 A3017 RMK A01 T10021056  RH  067%=      5-min Rain = 0
KLE1 191134Z 33013KT M00/M06 A3018 RMK A01 T10021056  RH  067%=      5-min Rain = 0
KLE1 191135Z 32013KT M00/M06 A3018 RMK A01 T10021056  RH  067%=      5-min Rain = 0
KLE1 191136Z 32017KT M00/M06 A3018 RMK A01 T10021056  RH  067%=      5-min Rain = 0
KLE1 191137Z 32015G21KT M00/M06 A3018 RMK A01 T10021055  RH  067%=      5-min Rain = 0
KLE1 191138Z 32016KT M00/M06 A3018 RMK A01 T10021055  RH  067%=      5-min Rain = 0
KLE1 191139Z 32014G19KT M00/M06 A3018 RMK A01 T10021056  RH  067%=      5-min Rain = 0
KLE1 191140Z 33014G19KT M00/M06 A3018 RMK A01 T10021056  RH  067%=      5-min Rain = 0
KLE1 191141Z 32015KT M00/M06 A3018 RMK A01 T10021055  RH  067%=      5-min Rain = 0
KLE1 191142Z 32016KT M00/M06 A3018 RMK A01 T10011055  RH  067%=      5-min Rain = 0
KLE1 191143Z 32016KT M00/M06 A3018 RMK A01 T10011055  RH  067%=      5-min Rain = 0
KLE1 191144Z 32014KT M00/M06 A3018 RMK A01 T10011055  RH  067%=      5-min Rain = 0
KLE1 191145Z 32012KT M00/M06 A3018 RMK A01 T10011055  RH  067%=      5-min Rain = 0
KLE1 191146Z 31017G22KT M00/M06 A3018 RMK A01 T10011055  RH  067%=      5-min Rain = 0
KLE1 191147Z 33018KT M00/M06 A3018 RMK A01 T10011055  RH  067%=      5-min Rain = 0
KLE1 191148Z 33019KT 00/06 A3018 RMK A01 T00-00-55  RH  067%=      5-min Rain = 0
KLE1 191149Z 32015KT 00/06 A3018 RMK A01 T00-00-55  RH  067%=      5-min Rain = 0
KLE1 191150Z 32015KT M00/M06 A3018 RMK A01 T10011056  RH  067%=      5-min Rain = 0
KLE1 191151Z 32019KT M00/M06 A3018 RMK A01 T10011055  RH  067%=      5-min Rain = 0
KLE1 191152Z 32019KT M00/M06 A3018 RMK A01 T10011055  RH  067%=      5-min Rain = 0
KLE1 191153Z 32016KT 00/06 A3019 RMK A01 T00-00-55  RH  067%=      5-min Rain = 0
KLE1 191154Z 32018G23KT M00/M06 A3019 RMK A01 T10011055  RH  067%=      5-min Rain = 0
KLE1 191155Z 32018G23KT M00/M06 A3018 RMK A01 T10011055  RH  067%=      5-min Rain = 0
KLE1 191156Z 32015KT 00/06 A3018 RMK A01 T00-00-55  RH  066%=      5-min Rain = 0
KLE1 191157Z 32016KT 00/06 A3018 RMK A01 T00-00-55  RH  066%=      5-min Rain = 0
KLE1 191158Z 32016KT 00/06 A3019 RMK A01 T00-00-55  RH  067%=      5-min Rain = 0
KLE1 191159Z 32016KT 00/06 A3019 RMK A01 T00-00-55  RH  067%=      5-min Rain = 0
KLE1 191200Z 32018KT 00/05 A3019 RMK A01 T00-00-54  RH  067%=      5-min Rain = 0
KLE1 191201Z 32015KT 00/05 A3019 RMK A01 T00-00-54  RH  067%=      5-min Rain = 0
KLE1 191202Z 32015KT 00/05 A3019 RMK A01 T00-00-54  RH  067%=      5-min Rain = 0
KLE1 191203Z 32015KT M00/M05 A3019 RMK A01 T10011054  RH  067%=      5-min Rain = 0
KLE1 191204Z 32016KT M00/M05 A3019 RMK A01 T10011054  RH  067%=      5-min Rain = 0
KLE1 191205Z 32015KT M00/M05 A3019 RMK A01 T10011053  RH  068%=      5-min Rain = 0
KLE1 191206Z 32018G24KT 00/05 A3019 RMK A01 T00-00-53  RH  068%=      5-min Rain = 0
KLE1 191207Z 32018KT 00/05 A3019 RMK A01 T00-00-53  RH  068%=      5-min Rain = 0
KLE1 191208Z 32020KT 00/05 A3019 RMK A01 T00000-53  RH  068%=      5-min Rain = 0
KLE1 191209Z 32019KT 00/05 A3019 RMK A01 T00000-53  RH  067%=      5-min Rain = 0
KLE1 191210Z 32023KT 00/M05 A3019 RMK A01 T00011053  RH  067%=      5-min Rain = 0
KLE1 191211Z 32022KT 00/M05 A3019 RMK A01 T00011053  RH  067%=      5-min Rain = 0
KLE1 191212Z 32017G22KT 00/M05 A3019 RMK A01 T00011053  RH  067%=      5-min Rain = 0
KLE1 191213Z 32017G22KT 00/M05 A302 RMK A01 T00011053  RH  067%=      5-min Rain = 0
KLE1 191214Z 32016KT 00/M05 A302 RMK A01 T00011053  RH  067%=      5-min Rain = 0
KLE1 191215Z 32019KT 00/M05 A302 RMK A01 T00011053  RH  067%=      5-min Rain = 0
KLE1 191216Z 31019KT 00/M05 A302 RMK A01 T00011053  RH  067%=      5-min Rain = 0
KLE1 191217Z 32016KT 00/M05 A302 RMK A01 T00011052  RH  067%=      5-min Rain = 0
KLE1 191218Z 31015KT 00/M05 A302 RMK A01 T00011052  RH  067%=      5-min Rain = 0
KLE1 191219Z 31014KT 00/M05 A302 RMK A01 T00011052  RH  067%=      5-min Rain = 0
KLE1 191220Z 31014KT 00/M05 A302 RMK A01 T00011051  RH  068%=      5-min Rain = 0
KLE1 191221Z 31012KT 00/M05 A302 RMK A01 T00011051  RH  068%=      5-min Rain = 0
KLE1 191222Z 31012KT 00/M05 A302 RMK A01 T00011051  RH  068%=      5-min Rain = 0
KLE1 191223Z 30012KT 00/05 A302 RMK A01 T00000-50  RH  069%=      5-min Rain = 0
KLE1 191224Z 31015KT 00/05 A302 RMK A01 T00000-49  RH  069%=      5-min Rain = 0
KLE1 191225Z 31014KT 00/05 A302 RMK A01 T00000-49  RH  069%=      5-min Rain = 0
KLE1 191226Z 30016KT 00/05 A3021 RMK A01 T00000-49  RH  070%=      5-min Rain = 0
KLE1 191227Z 31015KT 00/05 A3021 RMK A01 T00000-48  RH  070%=      5-min Rain = 0
KLE1 191228Z 31013KT 00/05 A3021 RMK A01 T00000-49  RH  070%=      5-min Rain = 0
KLE1 191229Z 31015KT 00/05 A3021 RMK A01 T00-00-49  RH  070%=      5-min Rain = 0
KLE1 191230Z 31017KT 00/05 A3021 RMK A01 T00-00-49  RH  070%=      5-min Rain = 0
KLE1 191231Z 31017KT 00/05 A3021 RMK A01 T00-00-49  RH  069%=      5-min Rain = 0
KLE1 191232Z 32016KT 00/05 A3021 RMK A01 T00-00-49  RH  069%=      5-min Rain = 0
KLE1 191233Z 32019G24KT 00/05 A3021 RMK A01 T00-00-50  RH  069%=      5-min Rain = 0
KLE1 191234Z 32018KT M00/M05 A3021 RMK A01 T10011050  RH  069%=      5-min Rain = 0
KLE1 191235Z 32019KT M00/M05 A3021 RMK A01 T10011050  RH  069%=      5-min Rain = 0
KLE1 191236Z 32018G24KT M00/M05 A3021 RMK A01 T10011050  RH  069%=      5-min Rain = 0
KLE1 191237Z 31017KT 00/05 A3021 RMK A01 T00-00-50  RH  069%=      5-min Rain = 0
KLE1 191238Z 32020KT 00/05 A3021 RMK A01 T00-00-50  RH  069%=      5-min Rain = 0
KLE1 191239Z 32016KT 00/05 A3021 RMK A01 T00-00-50  RH  069%=      5-min Rain = 0
KLE1 191240Z 32016KT 00/05 A3022 RMK A01 T00-00-50  RH  069%=      5-min Rain = 0
KLE1 191241Z 32016KT M00/M05 A3022 RMK A01 T10011050  RH  070%=      5-min Rain = 0
KLE1 191242Z 32016KT M00/M05 A3022 RMK A01 T10011050  RH  070%=      5-min Rain = 0
KLE1 191243Z 32017KT M00/M05 A3022 RMK A01 T10011050  RH  070%=      5-min Rain = 0
KLE1 191244Z 32018G24KT M00/M05 A3022 RMK A01 T10011050  RH  070%=      5-min Rain = 0
KLE1 191245Z 32020KT M00/M05 A3022 RMK A01 T10011049  RH  070%=      5-min Rain = 0
KLE1 191246Z 31019KT M00/M05 A3022 RMK A01 T10011049  RH  070%=      5-min Rain = 0
KLE1 191247Z 31019KT M00/M05 A3022 RMK A01 T10011050  RH  070%=      5-min Rain = 0
KLE1 191248Z 31019KT M00/M05 A3022 RMK A01 T10011049  RH  070%=      5-min Rain = 0
KLE1 191249Z 31017KT M00/M05 A3022 RMK A01 T10011049  RH  070%=      5-min Rain = 0
KLE1 191250Z 32018KT M00/M05 A3022 RMK A01 T10011050  RH  070%=      5-min Rain = 0
KLE1 191251Z 32016G21KT M00/M05 A3022 RMK A01 T10021050  RH  070%=      5-min Rain = 0
KLE1 191252Z 32022KT M00/M05 A3022 RMK A01 T10021050  RH  070%=      5-min Rain = 0
KLE1 191253Z 32016G21KT M00/M05 A3022 RMK A01 T10021050  RH  070%=      5-min Rain = 0
KLE1 191254Z 32015KT M00/M05 A3022 RMK A01 T10021050  RH  070%=      5-min Rain = 0
KLE1 191255Z 32017KT M00/M05 A3022 RMK A01 T10031050  RH  070%=      5-min Rain = 0
KLE1 191256Z 32016KT M00/M05 A3022 RMK A01 T10031050  RH  071%=      5-min Rain = 0
KLE1 191257Z 32015KT M00/M05 A3022 RMK A01 T10031050  RH  071%=      5-min Rain = 0
KLE1 191258Z 32014KT M00/M05 A3022 RMK A01 T10031050  RH  071%=      5-min Rain = 0
KLE1 191259Z 32017KT M00/M05 A3022 RMK A01 T10041050  RH  071%=      5-min Rain = 0
KLE1 191300Z 32016KT M00/M05 A3022 RMK A01 T10041050  RH  071%=      5-min Rain = 0
KLE1 191301Z 32016KT M00/M05 A3022 RMK A01 T10041050  RH  071%=      5-min Rain = 0
KLE1 191302Z 32016KT M00/M05 A3022 RMK A01 T10041049  RH  071%=      5-min Rain = 0
KLE1 191303Z 32014KT M00/M05 A3022 RMK A01 T10041050  RH  071%=      5-min Rain = 0
KLE1 191304Z 32015G21KT M00/M05 A3022 RMK A01 T10041050  RH  071%=      5-min Rain = 0
KLE1 191305Z 32019KT M00/M05 A3022 RMK A01 T10041049  RH  071%=      5-min Rain = 0
KLE1 191306Z 32016KT M00/M05 A3023 RMK A01 T10041049  RH  071%=      5-min Rain = 0
KLE1 191307Z 32015KT M00/M05 A3023 RMK A01 T10041049  RH  071%=      5-min Rain = 0
KLE1 191308Z 32017KT M00/M05 A3023 RMK A01 T10041049  RH  071%=      5-min Rain = 0
KLE1 191309Z 32016KT M00/M05 A3023 RMK A01 T10041049  RH  071%=      5-min Rain = 0
KLE1 191310Z 32015KT M00/M05 A3023 RMK A01 T10041049  RH  071%=      5-min Rain = 0
KLE1 191311Z 32017KT M00/M05 A3023 RMK A01 T10041050  RH  071%=      5-min Rain = 0
KLE1 191312Z 31016KT M00/M05 A3023 RMK A01 T10041049  RH  072%=      5-min Rain = 0
KLE1 191313Z 32018KT M00/M05 A3023 RMK A01 T10031049  RH  071%=      5-min Rain = 0
KLE1 191314Z 32018KT M00/M05 A3023 RMK A01 T10031049  RH  071%=      5-min Rain = 0
KLE1 191315Z 32018G23KT M00/M05 A3023 RMK A01 T10031049  RH  071%=      5-min Rain = 0
KLE1 191316Z 32019KT M00/M05 A3023 RMK A01 T10031049  RH  071%=      5-min Rain = 0
KLE1 191317Z 32017KT M00/M05 A3023 RMK A01 T10031049  RH  071%=      5-min Rain = 0
KLE1 191318Z 32015KT M00/M05 A3023 RMK A01 T10031049  RH  071%=      5-min Rain = 0
KLE1 191319Z 32014KT M00/M05 A3023 RMK A01 T10031049  RH  071%=      5-min Rain = 0
KLE1 191320Z 32014KT M00/M05 A3023 RMK A01 T10041049  RH  071%=      5-min Rain = 0
KLE1 191321Z 32015KT M00/M05 A3023 RMK A01 T10041049  RH  071%=      5-min Rain = 0
KLE1 191322Z 32013KT M00/M05 A3023 RMK A01 T10041049  RH  072%=      5-min Rain = 0
KLE1 191323Z 31013KT M01/M05 A3023 RMK A01 T10051050  RH  072%=      5-min Rain = 0
KLE1 191324Z 32015KT M01/M05 A3023 RMK A01 T10051049  RH  072%=      5-min Rain = 0
KLE1 191325Z 32016KT M01/M05 A3023 RMK A01 T10051049  RH  072%=      5-min Rain = 0
KLE1 191326Z 32014KT M00/M05 A3023 RMK A01 T10041048  RH  072%=      5-min Rain = 0
KLE1 191327Z 32016KT M00/M05 A3023 RMK A01 T10041049  RH  072%=      5-min Rain = 0
KLE1 191328Z 32014KT M00/M05 A3023 RMK A01 T10031049  RH  072%=      5-min Rain = 0
KLE1 191329Z 32015KT M00/M05 A3023 RMK A01 T10031049  RH  071%=      5-min Rain = 0
KLE1 191330Z 32016G21KT M00/M05 A3023 RMK A01 T10031048  RH  071%=      5-min Rain = 0
KLE1 191331Z 32019KT M00/M05 A3023 RMK A01 T10021048  RH  071%=      5-min Rain = 0
KLE1 191332Z 32016G21KT M00/M05 A3023 RMK A01 T10021048  RH  071%=      5-min Rain = 0
KLE1 191333Z 32018KT M00/M05 A3023 RMK A01 T10021048  RH  071%=      5-min Rain = 0
KLE1 191334Z 32015KT M00/M05 A3023 RMK A01 T10021048  RH  071%=      5-min Rain = 0
KLE1 191335Z 33014KT M00/M05 A3023 RMK A01 T10021049  RH  071%=      5-min Rain = 0
KLE1 191336Z 32013KT M00/M05 A3023 RMK A01 T10031049  RH  071%=      5-min Rain = 0
KLE1 191337Z 32013G20KT M00/M05 A3024 RMK A01 T10041050  RH  071%=      5-min Rain = 0
KLE1 191338Z 32016KT M00/M05 A3024 RMK A01 T10041049  RH  072%=      5-min Rain = 0
KLE1 191339Z 32013KT M00/M05 A3024 RMK A01 T10041049  RH  072%=      5-min Rain = 0
KLE1 191340Z 32014KT M00/M05 A3024 RMK A01 T10041049  RH  072%=      5-min Rain = 0
KLE1 191341Z 32014KT M00/M05 A3024 RMK A01 T10041049  RH  072%=      5-min Rain = 0
KLE1 191342Z 32013KT M01/M05 A3024 RMK A01 T10051049  RH  072%=      5-min Rain = 0
KLE1 191343Z 33014KT M01/M05 A3024 RMK A01 T10051049  RH  072%=      5-min Rain = 0
KLE1 191344Z 32014KT M01/M05 A3024 RMK A01 T10051049  RH  072%=      5-min Rain = 0
KLE1 191345Z 32016KT M01/M05 A3024 RMK A01 T10051049  RH  072%=      5-min Rain = 0
KLE1 191346Z 32015KT M01/M05 A3024 RMK A01 T10051049  RH  072%=      5-min Rain = 0
KLE1 191347Z 32015KT M00/M05 A3024 RMK A01 T10041049  RH  072%=      5-min Rain = 0
KLE1 191348Z 32014KT M00/M05 A3024 RMK A01 T10041049  RH  072%=      5-min Rain = 0
KLE1 191349Z 33013KT M00/M05 A3024 RMK A01 T10041049  RH  072%=      5-min Rain = 0
KLE1 191350Z 32014KT M01/M05 A3025 RMK A01 T10051049  RH  072%=      5-min Rain = 0
KLE1 191351Z 32016G21KT M01/M05 A3025 RMK A01 T10051049  RH  072%=      5-min Rain = 0
KLE1 191352Z 33018KT M00/M05 A3025 RMK A01 T10041048  RH  072%=      5-min Rain = 0
KLE1 191353Z 32017KT M00/M05 A3025 RMK A01 T10041048  RH  072%=      5-min Rain = 0
KLE1 191354Z 32013KT M00/M05 A3025 RMK A01 T10031049  RH  072%=      5-min Rain = 0
KLE1 191355Z 32015KT M00/M05 A3025 RMK A01 T10041049  RH  072%=      5-min Rain = 0
KLE1 191356Z 32013KT M00/M05 A3025 RMK A01 T10041049  RH  072%=      5-min Rain = 0
KLE1 191357Z 32012KT M00/M05 A3025 RMK A01 T10041049  RH  072%=      5-min Rain = 0
KLE1 191358Z 32014KT M00/M05 A3025 RMK A01 T10041049  RH  072%=      5-min Rain = 0
KLE1 191359Z 33017KT M00/M05 A3025 RMK A01 T10041048  RH  072%=      5-min Rain = 0
KLE1 191400Z 32017KT M00/M05 A3025 RMK A01 T10031048  RH  072%=      5-min Rain = 0
KLE1 191401Z 32016KT M00/M05 A3025 RMK A01 T10021048  RH  071%=      5-min Rain = 0
KLE1 191402Z 32016KT M00/M05 A3026 RMK A01 T10021048  RH  071%=      5-min Rain = 0
KLE1 191403Z 32015KT M00/M05 A3026 RMK A01 T10031048  RH  071%=      5-min Rain = 0
KLE1 191404Z 32016G21KT M00/M05 A3026 RMK A01 T10021048  RH  071%=      5-min Rain = 0
KLE1 191405Z 32016KT M00/M05 A3026 RMK A01 T10021048  RH  071%=      5-min Rain = 0
KLE1 191406Z 32015KT M00/M05 A3026 RMK A01 T10021048  RH  071%=      5-min Rain = 0
KLE1 191407Z 33020G25KT M00/M05 A3026 RMK A01 T10011048  RH  071%=      5-min Rain = 0
KLE1 191408Z 33017G22KT M00/M05 A3026 RMK A01 T10011048  RH  070%=      5-min Rain = 0
KLE1 191409Z 32014KT 00/05 A3026 RMK A01 T00-00-49  RH  070%=      5-min Rain = 0
KLE1 191410Z 32014KT M00/M05 A3026 RMK A01 T10011049  RH  070%=      5-min Rain = 0
KLE1 191411Z 32015KT M00/M05 A3026 RMK A01 T10011049  RH  070%=      5-min Rain = 0
KLE1 191412Z 32014KT M00/M05 A3026 RMK A01 T10011049  RH  070%=      5-min Rain = 0
KLE1 191413Z 33015KT M00/M05 A3026 RMK A01 T10011049  RH  070%=      5-min Rain = 0
KLE1 191414Z 32013KT M00/M05 A3026 RMK A01 T10011048  RH  070%=      5-min Rain = 0
KLE1 191415Z 33014KT 00/05 A3026 RMK A01 T00-00-48  RH  070%=      5-min Rain = 0
KLE1 191416Z 32012KT M00/M05 A3027 RMK A01 T10011049  RH  070%=      5-min Rain = 0
KLE1 191417Z 32012KT 00/05 A3027 RMK A01 T00-00-48  RH  070%=      5-min Rain = 0
KLE1 191418Z 32011KT M00/M05 A3027 RMK A01 T10011048  RH  070%=      5-min Rain = 0
KLE1 191419Z 32012KT M00/M05 A3027 RMK A01 T10011048  RH  070%=      5-min Rain = 0
KLE1 191420Z 32013KT M00/M05 A3027 RMK A01 T10011048  RH  071%=      5-min Rain = 0
KLE1 191421Z 33015KT 00/05 A3027 RMK A01 T00-00-48  RH  071%=      5-min Rain = 0
KLE1 191422Z 32014KT 00/05 A3027 RMK A01 T00000-48  RH  070%=      5-min Rain = 0
KLE1 191423Z 32012KT 00/M05 A3027 RMK A01 T00011048  RH  070%=      5-min Rain = 0
KLE1 191424Z 32013KT 00/M05 A3027 RMK A01 T00011048  RH  070%=      5-min Rain = 0
KLE1 191425Z 33013KT 00/M05 A3027 RMK A01 T00011048  RH  070%=      5-min Rain = 0
KLE1 191426Z 33013KT 00/M05 A3027 RMK A01 T00011048  RH  069%=      5-min Rain = 0
KLE1 191427Z 31011KT 00/M05 A3027 RMK A01 T00021048  RH  069%=      5-min Rain = 0
KLE1 191428Z 32011KT 00/M05 A3027 RMK A01 T00021048  RH  069%=      5-min Rain = 0
KLE1 191429Z 33016KT 00/M05 A3027 RMK A01 T00021048  RH  069%=      5-min Rain = 0
KLE1 191430Z 32012KT 00/M05 A3027 RMK A01 T00021048  RH  069%=      5-min Rain = 0
KLE1 191431Z 33013KT 00/M05 A3027 RMK A01 T00031048  RH  069%=      5-min Rain = 0
KLE1 191432Z 32014KT 00/M05 A3028 RMK A01 T00031048  RH  069%=      5-min Rain = 0
KLE1 191433Z 33018KT 00/M05 A3028 RMK A01 T00031048  RH  068%=      5-min Rain = 0
KLE1 191434Z 33017KT 00/M05 A3028 RMK A01 T00041048  RH  068%=      5-min Rain = 0
KLE1 191435Z 32015KT 00/M05 A3028 RMK A01 T00041049  RH  068%=      5-min Rain = 0
KLE1 191436Z 33013KT 01/M05 A3028 RMK A01 T00051048  RH  068%=      5-min Rain = 0
KLE1 191437Z 33016KT 01/M05 A3028 RMK A01 T00051049  RH  067%=      5-min Rain = 0
KLE1 191438Z 33015KT 01/M05 A3028 RMK A01 T00051049  RH  067%=      5-min Rain = 0
KLE1 191439Z 33012KT 01/M05 A3028 RMK A01 T00051049  RH  067%=      5-min Rain = 0
KLE1 191440Z 33014KT 01/M05 A3028 RMK A01 T00061048  RH  067%=      5-min Rain = 0
KLE1 191441Z 32016KT 01/M05 A3028 RMK A01 T00061049  RH  067%=      5-min Rain = 0
KLE1 191442Z 33014KT 01/M05 A3029 RMK A01 T00061049  RH  066%=      5-min Rain = 0
KLE1 191443Z 32015KT 01/M05 A3029 RMK A01 T00071049  RH  066%=      5-min Rain = 0
KLE1 191444Z 33014KT 01/M05 A3029 RMK A01 T00071049  RH  066%=      5-min Rain = 0
KLE1 191445Z 34016KT 01/M05 A3029 RMK A01 T00071049  RH  066%=      5-min Rain = 0
KLE1 191446Z 33015KT 01/M05 A3029 RMK A01 T00081049  RH  066%=      5-min Rain = 0
KLE1 191447Z 33016KT 01/M05 A3029 RMK A01 T00081050  RH  066%=      5-min Rain = 0
KLE1 191448Z 33015KT 01/M05 A3029 RMK A01 T00081049  RH  065%=      5-min Rain = 0
KLE1 191449Z 32016KT 01/M05 A3029 RMK A01 T00081049  RH  065%=      5-min Rain = 0
KLE1 191450Z 33015KT 01/M05 A3029 RMK A01 T00091049  RH  065%=      5-min Rain = 0
KLE1 191451Z 33015G20KT 01/M05 A3029 RMK A01 T00091049  RH  065%=      5-min Rain = 0
KLE1 191452Z 32014KT 01/M05 A3029 RMK A01 T00091049  RH  065%=      5-min Rain = 0
KLE1 191453Z 33011KT 01/M05 A3029 RMK A01 T00101048  RH  065%=      5-min Rain = 0
KLE1 191454Z 32015KT 01/M05 A3029 RMK A01 T00101047  RH  065%=      5-min Rain = 0
KLE1 191455Z 32013KT 01/M05 A303 RMK A01 T00111047  RH  065%=      5-min Rain = 0
KLE1 191456Z 32016KT 01/M05 A303 RMK A01 T00111047  RH  065%=      5-min Rain = 0
KLE1 191457Z 32016KT 01/M05 A303 RMK A01 T00111047  RH  065%=      5-min Rain = 0
KLE1 191458Z 32013KT 01/M05 A303 RMK A01 T00111048  RH  065%=      5-min Rain = 0
KLE1 191459Z 32014KT 01/M05 A303 RMK A01 T00111047  RH  065%=      5-min Rain = 0
KLE1 191500Z 31014KT 01/M05 A303 RMK A01 T00121047  RH  065%=      5-min Rain = 0
KLE1 191501Z 31016KT 01/M05 A303 RMK A01 T00131046  RH  065%=      5-min Rain = 0
KLE1 191502Z 31019G24KT 01/M05 A303 RMK A01 T00131046  RH  065%=      5-min Rain = 0
KLE1 191503Z 32020KT 01/M05 A303 RMK A01 T00141047  RH  064%=      5-min Rain = 0
KLE1 191504Z 33026KT 01/M05 A303 RMK A01 T00141048  RH  064%=      5-min Rain = 0
KLE1 191505Z 32019G24KT 01/M05 A303 RMK A01 T00141049  RH  063%=      5-min Rain = 0
KLE1 191506Z 32017KT 01/M05 A303 RMK A01 T00141049  RH  063%=      5-min Rain = 0
KLE1 191507Z 33017G22KT 01/M05 A303 RMK A01 T00141048  RH  063%=      5-min Rain = 0
KLE1 191508Z 32018KT 02/M05 A303 RMK A01 T00151048  RH  063%=      5-min Rain = 0
KLE1 191509Z 32018KT 02/M05 A303 RMK A01 T00151050  RH  062%=      5-min Rain = 0
KLE1 191510Z 33017KT 02/M05 A303 RMK A01 T00151050  RH  062%=      5-min Rain = 0
KLE1 191511Z 33019KT 02/M05 A303 RMK A01 T00151049  RH  062%=      5-min Rain = 0
KLE1 191512Z 33020G25KT 02/M05 A303 RMK A01 T00161050  RH  062%=      5-min Rain = 0
KLE1 191513Z 34020KT 02/M05 A3031 RMK A01 T00161051  RH  061%=      5-min Rain = 0
KLE1 191514Z 33020KT 02/M05 A3031 RMK A01 T00151052  RH  061%=      5-min Rain = 0
KLE1 191515Z 33019KT 01/M05 A3031 RMK A01 T00141052  RH  061%=      5-min Rain = 0
KLE1 191516Z 33016KT 01/M05 A3031 RMK A01 T00141052  RH  062%=      5-min Rain = 0
KLE1 191517Z 33018KT 01/M05 A3031 RMK A01 T00141051  RH  062%=      5-min Rain = 0
KLE1 191518Z 33019G24KT 01/M05 A3031 RMK A01 T00141051  RH  062%=      5-min Rain = 0
KLE1 191519Z 34019KT 01/M05 A3031 RMK A01 T00141052  RH  061%=      5-min Rain = 0
KLE1 191520Z 33017KT 01/M05 A3031 RMK A01 T00141052  RH  061%=      5-min Rain = 0
KLE1 191521Z 33014G19KT 02/M05 A3031 RMK A01 T00151050  RH  062%=      5-min Rain = 0
KLE1 191522Z 33014KT 02/M05 A3031 RMK A01 T00171049  RH  062%=      5-min Rain = 0
KLE1 191523Z 32017KT 02/M05 A3031 RMK A01 T00191048  RH  061%=      5-min Rain = 0
KLE1 191524Z 33020KT 02/M05 A3031 RMK A01 T00181050  RH  060%=      5-min Rain = 0
KLE1 191525Z 33020KT 02/M05 A3031 RMK A01 T00181051  RH  060%=      5-min Rain = 0
KLE1 191526Z 33019G24KT 02/M05 A3032 RMK A01 T00181051  RH  060%=      5-min Rain = 0
KLE1 191527Z 34020KT 02/M05 A3032 RMK A01 T00181051  RH  060%=      5-min Rain = 0
KLE1 191528Z 33018KT 02/M05 A3032 RMK A01 T00181052  RH  060%=      5-min Rain = 0
KLE1 191529Z 33017KT 02/M05 A3032 RMK A01 T00191049  RH  061%=      5-min Rain = 0
KLE1 191530Z 33019G24KT 02/M05 A3032 RMK A01 T00201048  RH  061%=      5-min Rain = 0
KLE1 191531Z 34020KT 02/M05 A3032 RMK A01 T00201050  RH  060%=      5-min Rain = 0
KLE1 191532Z 33023KT 02/M05 A3032 RMK A01 T00191050  RH  060%=      5-min Rain = 0
KLE1 191533Z 33019KT 02/M05 A3032 RMK A01 T00181050  RH  060%=      5-min Rain = 0
KLE1 191534Z 33018G23KT 02/M05 A3032 RMK A01 T00181049  RH  061%=      5-min Rain = 0
KLE1 191535Z 33019KT 02/M05 A3032 RMK A01 T00191049  RH  061%=      5-min Rain = 0
KLE1 191536Z 32022KT 02/M05 A3032 RMK A01 T00191049  RH  060%=      5-min Rain = 0
KLE1 191537Z 34022KT 02/M05 A3032 RMK A01 T00191050  RH  060%=      5-min Rain = 0
KLE1 191538Z 34023KT 02/M05 A3032 RMK A01 T00191050  RH  060%=      5-min Rain = 0
KLE1 191539Z 34024KT 02/M05 A3032 RMK A01 T00191050  RH  060%=      5-min Rain = 0
KLE1 191540Z 34026KT 02/M05 A3032 RMK A01 T00191051  RH  060%=      5-min Rain = 0
KLE1 191541Z 33022G27KT 02/M05 A3032 RMK A01 T00181051  RH  060%=      5-min Rain = 0
KLE1 191542Z 33020KT 02/M05 A3032 RMK A01 T00181050  RH  061%=      5-min Rain = 0
KLE1 191543Z 34019KT 02/M05 A3032 RMK A01 T00181050  RH  061%=      5-min Rain = 0
KLE1 191544Z 33018KT 02/M05 A3032 RMK A01 T00181050  RH  061%=      5-min Rain = 0
KLE1 191545Z 33015G22KT 02/M05 A3032 RMK A01 T00181050  RH  061%=      5-min Rain = 0
KLE1 191546Z 33017KT 02/M05 A3032 RMK A01 T00191049  RH  061%=      5-min Rain = 0
KLE1 191547Z 32017KT 02/M05 A3032 RMK A01 T00191049  RH  061%=      5-min Rain = 0
KLE1 191548Z 32021G27KT 02/M05 A3032 RMK A01 T00191049  RH  060%=      5-min Rain = 0
KLE1 191549Z 32021G26KT 02/M05 A3032 RMK A01 T00191049  RH  060%=      5-min Rain = 0
KLE1 191550Z 33023KT 02/M05 A3032 RMK A01 T00201049  RH  060%=      5-min Rain = 0
KLE1 191551Z 32018KT 02/M05 A3032 RMK A01 T00191049  RH  060%=      5-min Rain = 0
KLE1 191552Z 32022G27KT 02/M05 A3032 RMK A01 T00191050  RH  060%=      5-min Rain = 0
KLE1 191553Z 33025G30KT 02/M05 A3032 RMK A01 T00181051  RH  060%=      5-min Rain = 0
KLE1 191554Z 33022KT 02/M05 A3032 RMK A01 T00171051  RH  060%=      5-min Rain = 0
KLE1 191555Z 33025G30KT 02/M05 A3032 RMK A01 T00181051  RH  060%=      5-min Rain = 0
KLE1 191556Z 32026KT 02/M05 A3033 RMK A01 T00191050  RH  060%=      5-min Rain = 0
KLE1 191557Z 33025G30KT 02/M05 A3033 RMK A01 T00201051  RH  060%=      5-min Rain = 0
KLE1 191558Z 34023KT 02/M05 A3033 RMK A01 T00201051  RH  059%=      5-min Rain = 0
KLE1 191559Z 33027KT 02/M05 A3033 RMK A01 T00211050  RH  059%=      5-min Rain = 0
KLE1 191600Z 34027KT 02/M05 A3033 RMK A01 T00221051  RH  058%=      5-min Rain = 0
KLE1 191601Z 33023KT 02/M05 A3033 RMK A01 T00221051  RH  058%=      5-min Rain = 0
KLE1 191602Z 33023KT 02/M05 A3033 RMK A01 T00231050  RH  058%=      5-min Rain = 0
KLE1 191603Z 33026KT 03/M05 A3032 RMK A01 T00251050  RH  058%=      5-min Rain = 0
KLE1 191604Z 33025KT 03/M05 A3032 RMK A01 T00251051  RH  057%=      5-min Rain = 0
KLE1 191605Z 34023G28KT 03/M05 A3033 RMK A01 T00251051  RH  057%=      5-min Rain = 0
KLE1 191606Z 33023KT 02/M05 A3033 RMK A01 T00241052  RH  057%=      5-min Rain = 0
KLE1 191607Z 33023KT 02/M05 A3033 RMK A01 T00231052  RH  058%=      5-min Rain = 0
KLE1 191608Z 33022KT 02/M05 A3032 RMK A01 T00241050  RH  058%=      5-min Rain = 0
KLE1 191609Z 33026G31KT 03/M05 A3032 RMK A01 T00261050  RH  057%=      5-min Rain = 0
KLE1 191610Z 33026KT 03/M05 A3033 RMK A01 T00261051  RH  057%=      5-min Rain = 0
KLE1 191611Z 33021G26KT 02/M05 A3033 RMK A01 T00241052  RH  057%=      5-min Rain = 0
KLE1 191612Z 33021KT 03/M05 A3033 RMK A01 T00261050  RH  057%=      5-min Rain = 0
KLE1 191613Z 33022KT 03/M05 A3033 RMK A01 T00281049  RH  057%=      5-min Rain = 0
KLE1 191614Z 33021KT 03/M05 A3033 RMK A01 T00281050  RH  056%=      5-min Rain = 0
KLE1 191615Z 33024KT 03/M05 A3033 RMK A01 T00281050  RH  056%=      5-min Rain = 0
KLE1 191616Z 32022KT 03/M05 A3033 RMK A01 T00281050  RH  057%=      5-min Rain = 0
KLE1 191617Z 32022KT 03/M05 A3033 RMK A01 T00281050  RH  056%=      5-min Rain = 0
KLE1 191618Z 33023KT 03/M05 A3033 RMK A01 T00261052  RH  056%=      5-min Rain = 0
KLE1 191619Z 32022KT 02/M05 A3033 RMK A01 T00241052  RH  057%=      5-min Rain = 0
KLE1 191620Z 33022KT 02/M05 A3033 RMK A01 T00241051  RH  058%=      5-min Rain = 0
KLE1 191621Z 33025KT 02/M05 A3033 RMK A01 T00241051  RH  058%=      5-min Rain = 0
KLE1 191622Z 33021KT 02/M05 A3033 RMK A01 T00231052  RH  058%=      5-min Rain = 0
KLE1 191623Z 33024KT 02/M05 A3033 RMK A01 T00231050  RH  058%=      5-min Rain = 0
KLE1 191624Z 33021KT 02/M05 A3033 RMK A01 T00231051  RH  058%=      5-min Rain = 0
KLE1 191625Z 33020KT 02/M05 A3033 RMK A01 T00221051  RH  058%=      5-min Rain = 0
KLE1 191626Z 33019KT 02/M05 A3033 RMK A01 T00231050  RH  058%=      5-min Rain = 0
KLE1 191627Z 33019KT 03/M05 A3033 RMK A01 T00261047  RH  059%=      5-min Rain = 0
KLE1 191628Z 32018KT 03/M05 A3033 RMK A01 T00271048  RH  058%=      5-min Rain = 0
KLE1 191629Z 33017KT 03/M05 A3033 RMK A01 T00281048  RH  057%=      5-min Rain = 0
KLE1 191630Z 32018KT 03/M05 A3033 RMK A01 T00281049  RH  057%=      5-min Rain = 0
KLE1 191631Z 33015KT 03/M05 A3034 RMK A01 T00281049  RH  057%=      5-min Rain = 0
KLE1 191632Z 33017G22KT 03/M05 A3034 RMK A01 T00281048  RH  057%=      5-min Rain = 0
KLE1 191633Z 34018KT 03/M05 A3034 RMK A01 T00291048  RH  057%=      5-min Rain = 0
KLE1 191634Z 33019KT 03/M05 A3034 RMK A01 T00271050  RH  057%=      5-min Rain = 0
KLE1 191635Z 33018KT 03/M05 A3034 RMK A01 T00261050  RH  057%=      5-min Rain = 0
KLE1 191636Z 33018KT 03/M05 A3034 RMK A01 T00261049  RH  058%=      5-min Rain = 0
KLE1 191637Z 34021KT 03/M05 A3034 RMK A01 T00261049  RH  058%=      5-min Rain = 0
KLE1 191638Z 34020KT 03/M05 A3034 RMK A01 T00271049  RH  057%=      5-min Rain = 0
KLE1 191639Z 34015G20KT 03/M05 A3034 RMK A01 T00261050  RH  057%=      5-min Rain = 0
KLE1 191640Z 34019KT 03/M05 A3034 RMK A01 T00271048  RH  058%=      5-min Rain = 0
KLE1 191641Z 33019KT 03/M05 A3034 RMK A01 T00281049  RH  057%=      5-min Rain = 0
KLE1 191642Z 33021G26KT 03/M05 A3034 RMK A01 T00271049  RH  057%=      5-min Rain = 0
KLE1 191643Z 34022KT 03/M05 A3034 RMK A01 T00271049  RH  057%=      5-min Rain = 0
KLE1 191644Z 34021KT 03/M05 A3034 RMK A01 T00261050  RH  057%=      5-min Rain = 0
KLE1 191645Z 34020KT 03/M05 A3034 RMK A01 T00261050  RH  058%=      5-min Rain = 0
KLE1 191646Z 34017KT 03/M05 A3034 RMK A01 T00261049  RH  058%=      5-min Rain = 0
KLE1 191647Z 34015KT 03/M05 A3034 RMK A01 T00271048  RH  058%=      5-min Rain = 0
KLE1 191648Z 33017KT 03/M05 A3034 RMK A01 T00291047  RH  057%=      5-min Rain = 0
KLE1 191649Z 33018KT 03/M05 A3034 RMK A01 T00281048  RH  057%=      5-min Rain = 0
KLE1 191650Z 34019KT 03/M05 A3034 RMK A01 T00281049  RH  057%=      5-min Rain = 0
KLE1 191651Z 34016G22KT 03/M05 A3034 RMK A01 T00281048  RH  057%=      5-min Rain = 0
KLE1 191652Z 34017KT 03/M05 A3034 RMK A01 T00281048  RH  057%=      5-min Rain = 0
KLE1 191653Z 33015KT 03/M05 A3034 RMK A01 T00281048  RH  057%=      5-min Rain = 0
KLE1 191654Z 33016KT 03/M05 A3034 RMK A01 T00301046  RH  057%=      5-min Rain = 0
KLE1 191655Z 33017KT 03/M05 A3035 RMK A01 T00311046  RH  057%=      5-min Rain = 0
KLE1 191656Z 33017KT 03/M05 A3035 RMK A01 T00311047  RH  057%=      5-min Rain = 0
KLE1 191657Z 32021KT 03/M05 A3035 RMK A01 T00301048  RH  056%=      5-min Rain = 0
KLE1 191658Z 33017KT 03/M05 A3035 RMK A01 T00291049  RH  056%=      5-min Rain = 0
KLE1 191659Z 33018KT 03/M05 A3035 RMK A01 T00291048  RH  057%=      5-min Rain = 0
KLE1 191700Z 33014KT 03/M05 A3035 RMK A01 T00311047  RH  057%=      5-min Rain = 0
KLE1 191701Z 34016KT 04/M04 A3035 RMK A01 T00371041  RH  057%=      5-min Rain = 0
KLE1 191702Z 34018KT 04/M05 A3035 RMK A01 T00381046  RH  054%=      5-min Rain = 0
KLE1 191703Z 33017KT 03/M05 A3035 RMK A01 T00331051  RH  054%=      5-min Rain = 0
KLE1 191704Z 33021G26KT 03/M05 A3035 RMK A01 T00311050  RH  055%=      5-min Rain = 0
KLE1 191705Z 33022KT 03/M05 A3035 RMK A01 T00331047  RH  055%=      5-min Rain = 0
KLE1 191706Z 33021G27KT 04/M05 A3035 RMK A01 T00361047  RH  055%=      5-min Rain = 0
KLE1 191707Z 34022KT 04/M05 A3035 RMK A01 T00361048  RH  054%=      5-min Rain = 0
KLE1 191708Z 35020KT 04/M05 A3035 RMK A01 T00371048  RH  054%=      5-min Rain = 0
KLE1 191709Z 35020KT 04/M05 A3035 RMK A01 T00361049  RH  054%=      5-min Rain = 0
KLE1 191710Z 34021KT 04/M05 A3035 RMK A01 T00371047  RH  054%=      5-min Rain = 0
KLE1 191711Z 34020KT 04/M05 A3035 RMK A01 T00381047  RH  054%=      5-min Rain = 0
KLE1 191712Z 34017KT 04/M05 A3035 RMK A01 T00401046  RH  054%=      5-min Rain = 0
KLE1 191713Z 33020KT 04/M05 A3035 RMK A01 T00421045  RH  053%=      5-min Rain = 0
KLE1 191714Z 32020KT 04/M05 A3035 RMK A01 T00411048  RH  052%=      5-min Rain = 0
KLE1 191715Z 32022KT 04/M05 A3035 RMK A01 T00381050  RH  053%=      5-min Rain = 0
KLE1 191716Z 32023KT 04/M05 A3034 RMK A01 T00351051  RH  053%=      5-min Rain = 0
KLE1 191717Z 33025G33KT 04/M05 A3035 RMK A01 T00351049  RH  054%=      5-min Rain = 0
KLE1 191718Z 33024KT 03/M05 A3035 RMK A01 T00331052  RH  054%=      5-min Rain = 0
KLE1 191719Z 34024KT 03/M05 A3035 RMK A01 T00311052  RH  054%=      5-min Rain = 0
KLE1 191720Z 33021KT 03/M05 A3035 RMK A01 T00321049  RH  055%=      5-min Rain = 0
KLE1 191721Z 33022G27KT 04/M05 A3035 RMK A01 T00361047  RH  055%=      5-min Rain = 0
KLE1 191722Z 33022KT 04/M05 A3035 RMK A01 T00381047  RH  054%=      5-min Rain = 0
KLE1 191723Z 33020KT 04/M05 A3035 RMK A01 T00381048  RH  054%=      5-min Rain = 0
KLE1 191724Z 33024KT 04/M05 A3035 RMK A01 T00391047  RH  053%=      5-min Rain = 0
KLE1 191725Z 33017G23KT 04/M05 A3035 RMK A01 T00391048  RH  053%=      5-min Rain = 0
KLE1 191726Z 34021KT 04/M05 A3035 RMK A01 T00401046  RH  053%=      5-min Rain = 0
KLE1 191727Z 34019KT 04/M05 A3035 RMK A01 T00411047  RH  053%=      5-min Rain = 0
KLE1 191728Z 34020KT 04/M05 A3035 RMK A01 T00421046  RH  052%=      5-min Rain = 0
KLE1 191729Z 33021KT 04/M05 A3035 RMK A01 T00431046  RH  052%=      5-min Rain = 0
KLE1 191730Z 33021KT 04/M05 A3035 RMK A01 T00431046  RH  052%=      5-min Rain = 0
KLE1 191731Z 32022KT 04/M05 A3034 RMK A01 T00421048  RH  052%=      5-min Rain = 0
KLE1 191732Z 32020KT 04/M05 A3034 RMK A01 T00401049  RH  052%=      5-min Rain = 0
KLE1 191733Z 32020KT 04/M05 A3035 RMK A01 T00391049  RH  053%=      5-min Rain = 0
KLE1 191734Z 34019KT 04/M05 A3035 RMK A01 T00391047  RH  053%=      5-min Rain = 0
KLE1 191735Z 33016KT 04/M05 A3035 RMK A01 T00421045  RH  053%=      5-min Rain = 0
KLE1 191736Z 33017KT 05/M04 A3035 RMK A01 T00481040  RH  053%=      5-min Rain = 0
KLE1 191737Z 34020KT 05/M04 A3035 RMK A01 T00501044  RH  050%=      5-min Rain = 0
KLE1 191738Z 34019KT 05/M05 A3035 RMK A01 T00491046  RH  050%=      5-min Rain = 0
KLE1 191739Z 34021KT 05/M05 A3035 RMK A01 T00471047  RH  050%=      5-min Rain = 0
KLE1 191740Z 35021G27KT 05/M05 A3034 RMK A01 T00471047  RH  050%=      5-min Rain = 0
KLE1 191741Z 33020KT 05/M05 A3034 RMK A01 T00481047  RH  050%=      5-min Rain = 0
KLE1 191742Z 33020KT 05/M05 A3034 RMK A01 T00481047  RH  050%=      5-min Rain = 0
KLE1 191743Z 34022KT 05/M05 A3034 RMK A01 T00481048  RH  050%=      5-min Rain = 0
KLE1 191744Z 33019KT 05/M05 A3034 RMK A01 T00461048  RH  050%=      5-min Rain = 0
KLE1 191745Z 33019KT 05/M05 A3034 RMK A01 T00471048  RH  050%=      5-min Rain = 0
KLE1 191746Z 33017G22KT 05/M05 A3034 RMK A01 T00471047  RH  051%=      5-min Rain = 0
KLE1 191747Z 34023KT 05/M05 A3034 RMK A01 T00491047  RH  050%=      5-min Rain = 0
KLE1 191748Z 34020KT 05/M05 A3034 RMK A01 T00471049  RH  050%=      5-min Rain = 0
KLE1 191749Z 34020KT 05/M05 A3034 RMK A01 T00461049  RH  050%=      5-min Rain = 0
KLE1 191750Z 34023KT 05/M05 A3034 RMK A01 T00471048  RH  050%=      5-min Rain = 0
KLE1 191751Z 33022KT 05/M05 A3034 RMK A01 T00451050  RH  050%=      5-min Rain = 0
KLE1 191752Z 33017KT 04/M05 A3034 RMK A01 T00441049  RH  051%=      5-min Rain = 0
KLE1 191753Z 33018KT 05/M05 A3034 RMK A01 T00471046  RH  051%=      5-min Rain = 0
KLE1 191754Z 34016KT 05/M05 A3034 RMK A01 T00491046  RH  050%=      5-min Rain = 0
KLE1 191755Z 33017KT 05/M05 A3034 RMK A01 T00501047  RH  050%=      5-min Rain = 0
KLE1 191756Z 32019KT 05/M05 A3034 RMK A01 T00511046  RH  050%=      5-min Rain = 0
KLE1 191757Z 33019KT 05/M05 A3034 RMK A01 T00531046  RH  049%=      5-min Rain = 0
KLE1 191758Z 33017KT 05/M05 A3034 RMK A01 T00531047  RH  048%=      5-min Rain = 0
KLE1 191759Z 32019KT 05/M05 A3034 RMK A01 T00531048  RH  048%=      5-min Rain = 0
KLE1 191800Z 33020KT 05/M05 A3034 RMK A01 T00511048  RH  049%=      5-min Rain = 0
KLE1 191801Z 33016G21KT 05/M05 A3033 RMK A01 T00501049  RH  049%=      5-min Rain = 0
KLE1 191802Z 34023KT 05/M05 A3033 RMK A01 T00501047  RH  049%=      5-min Rain = 0
KLE1 191803Z 34020KT 05/M05 A3033 RMK A01 T00491049  RH  049%=      5-min Rain = 0
KLE1 191804Z 33017KT 05/M05 A3033 RMK A01 T00491048  RH  049%=      5-min Rain = 0
KLE1 191805Z 32020G26KT 05/M05 A3033 RMK A01 T00521046  RH  049%=      5-min Rain = 0
KLE1 191806Z 33021KT 05/M05 A3033 RMK A01 T00521048  RH  048%=      5-min Rain = 0
KLE1 191807Z 33021KT 05/M05 A3033 RMK A01 T00511049  RH  048%=      5-min Rain = 0
KLE1 191808Z 33020KT 05/M05 A3033 RMK A01 T00501049  RH  049%=      5-min Rain = 0
KLE1 191809Z 34019KT 05/M05 A3033 RMK A01 T00501048  RH  049%=      5-min Rain = 0
KLE1 191810Z 34020KT 05/M05 A3033 RMK A01 T00501049  RH  049%=      5-min Rain = 0
KLE1 191811Z 34020KT 05/M05 A3033 RMK A01 T00501047  RH  049%=      5-min Rain = 0
KLE1 191812Z 34021KT 05/M05 A3033 RMK A01 T00521047  RH  049%=      5-min Rain = 0
KLE1 191813Z 34018KT 05/M05 A3033 RMK A01 T00521048  RH  048%=      5-min Rain = 0
KLE1 191814Z 34017KT 05/M05 A3032 RMK A01 T00521048  RH  049%=      5-min Rain = 0
KLE1 191815Z 34017G22KT 06/M05 A3032 RMK A01 T00551045  RH  049%=      5-min Rain = 0
KLE1 191816Z 33020KT 06/M05 A3032 RMK A01 T00561046  RH  048%=      5-min Rain = 0
KLE1 191817Z 33020G25KT 06/M05 A3032 RMK A01 T00561047  RH  048%=      5-min Rain = 0
KLE1 191818Z 34019KT 06/M05 A3032 RMK A01 T00551048  RH  047%=      5-min Rain = 0
KLE1 191819Z 34020KT 06/M05 A3032 RMK A01 T00561047  RH  048%=      5-min Rain = 0
KLE1 191820Z 34020KT 06/M05 A3032 RMK A01 T00561048  RH  047%=      5-min Rain = 0
KLE1 191821Z 34021G28KT 06/M05 A3032 RMK A01 T00551048  RH  047%=      5-min Rain = 0
KLE1 191822Z 33022KT 06/M05 A3032 RMK A01 T00551047  RH  048%=      5-min Rain = 0
KLE1 191823Z 34019G24KT 06/M05 A3032 RMK A01 T00561047  RH  047%=      5-min Rain = 0
KLE1 191824Z 34022KT 06/M05 A3032 RMK A01 T00581047  RH  047%=      5-min Rain = 0
KLE1 191825Z 34023KT 06/M05 A3032 RMK A01 T00581047  RH  047%=      5-min Rain = 0
KLE1 191826Z 34022KT 06/M05 A3032 RMK A01 T00581047  RH  047%=      5-min Rain = 0
KLE1 191827Z 33023KT 06/M05 A3032 RMK A01 T00581047  RH  047%=      5-min Rain = 0
KLE1 191828Z 33023KT 06/M05 A3032 RMK A01 T00571048  RH  047%=      5-min Rain = 0
KLE1 191829Z 33023KT 06/M05 A3032 RMK A01 T00581047  RH  047%=      5-min Rain = 0
KLE1 191830Z 33022KT 06/M05 A3032 RMK A01 T00571048  RH  047%=      5-min Rain = 0
KLE1 191831Z 34021KT 06/M05 A3032 RMK A01 T00561047  RH  047%=      5-min Rain = 0
KLE1 191832Z 34020KT 06/M05 A3032 RMK A01 T00591045  RH  047%=      5-min Rain = 0
KLE1 191833Z 33020G25KT 06/M05 A3032 RMK A01 T00571047  RH  047%=      5-min Rain = 0
KLE1 191834Z 34023KT 06/M05 A3032 RMK A01 T00581046  RH  047%=      5-min Rain = 0
KLE1 191835Z 34020KT 06/M05 A3032 RMK A01 T00581046  RH  047%=      5-min Rain = 0
KLE1 191836Z 34019KT 06/M05 A3032 RMK A01 T00571047  RH  047%=      5-min Rain = 0
KLE1 191837Z 33019KT 06/M05 A3032 RMK A01 T00571046  RH  047%=      5-min Rain = 0
KLE1 191838Z 32021KT 06/M05 A3032 RMK A01 T00581046  RH  047%=      5-min Rain = 0
KLE1 191839Z 33020KT 06/M05 A3032 RMK A01 T00581045  RH  047%=      5-min Rain = 0
KLE1 191840Z 33021KT 06/M04 A3031 RMK A01 T00611043  RH  047%=      5-min Rain = 0
KLE1 191841Z 33022KT 06/M05 A3031 RMK A01 T00611045  RH  047%=      5-min Rain = 0
KLE1 191842Z 32021KT 06/M04 A3031 RMK A01 T00611044  RH  047%=      5-min Rain = 0
KLE1 191843Z 32024KT 06/M04 A3031 RMK A01 T00631043  RH  047%=      5-min Rain = 0
KLE1 191844Z 31023KT 06/M05 A3031 RMK A01 T00611046  RH  046%=      5-min Rain = 0
KLE1 191845Z 32021KT 06/M05 A3031 RMK A01 T00601045  RH  047%=      5-min Rain = 0
KLE1 191846Z 33021G26KT 06/M04 A3031 RMK A01 T00601044  RH  047%=      5-min Rain = 0
KLE1 191847Z 33019KT 06/M05 A3031 RMK A01 T00591045  RH  047%=      5-min Rain = 0
KLE1 191848Z 33016KT 06/M04 A3031 RMK A01 T00601043  RH  048%=      5-min Rain = 0
KLE1 191849Z 34020G26KT 06/M04 A3031 RMK A01 T00641041  RH  047%=      5-min Rain = 0
KLE1 191850Z 34019KT 06/M04 A303 RMK A01 T00641043  RH  046%=      5-min Rain = 0
KLE1 191851Z 32020G26KT 07/M04 A303 RMK A01 T00661041  RH  046%=      5-min Rain = 0
KLE1 191852Z 32022KT 07/M04 A303 RMK A01 T00661044  RH  045%=      5-min Rain = 0
KLE1 191853Z 32018KT 06/M05 A303 RMK A01 T00621046  RH  046%=      5-min Rain = 0
KLE1 191854Z 33018KT 06/M04 A303 RMK A01 T00611044  RH  047%=      5-min Rain = 0
KLE1 191855Z 33018G24KT 06/M04 A3031 RMK A01 T00631043  RH  047%=      5-min Rain = 0
KLE1 191856Z 33019G24KT 06/M04 A303 RMK A01 T00641043  RH  046%=      5-min Rain = 0
KLE1 191857Z 32021KT 07/M04 A303 RMK A01 T00651043  RH  046%=      5-min Rain = 0
KLE1 191858Z 34020KT 06/M04 A3031 RMK A01 T00631044  RH  046%=      5-min Rain = 0
KLE1 191859Z 33019G25KT 06/M04 A3031 RMK A01 T00631043  RH  047%=      5-min Rain = 0
KLE1 191900Z 34022KT 06/M04 A3031 RMK A01 T00631043  RH  047%=      5-min Rain = 0
KLE1 191901Z 34019KT 06/M04 A3031 RMK A01 T00621043  RH  047%=      5-min Rain = 0
KLE1 191902Z 33017KT 06/M04 A3031 RMK A01 T00611043  RH  047%=      5-min Rain = 0
KLE1 191903Z 33020KT 07/M04 A303 RMK A01 T00651040  RH  047%=      5-min Rain = 0
KLE1 191904Z 34021KT 07/M04 A303 RMK A01 T00651042  RH  046%=      5-min Rain = 0
KLE1 191905Z 34020KT 06/M04 A303 RMK A01 T00641043  RH  046%=      5-min Rain = 0
KLE1 191906Z 34017KT 06/M04 A303 RMK A01 T00641042  RH  047%=      5-min Rain = 0
KLE1 191907Z 33017KT 07/M04 A303 RMK A01 T00651041  RH  047%=      5-min Rain = 0
KLE1 191908Z 32021KT 07/M04 A303 RMK A01 T00681040  RH  046%=      5-min Rain = 0
KLE1 191909Z 32020KT 07/M04 A303 RMK A01 T00661042  RH  046%=      5-min Rain = 0
KLE1 191910Z 32019KT 06/M04 A303 RMK A01 T00631044  RH  046%=      5-min Rain = 0
KLE1 191911Z 32020KT 06/M04 A303 RMK A01 T00621043  RH  047%=      5-min Rain = 0
KLE1 191912Z 33022KT 06/M04 A303 RMK A01 T00641041  RH  047%=      5-min Rain = 0
KLE1 191913Z 33024KT 06/M04 A303 RMK A01 T00641042  RH  046%=      5-min Rain = 0
KLE1 191914Z 33022KT 06/M04 A303 RMK A01 T00631043  RH  047%=      5-min Rain = 0
KLE1 191915Z 33019G25KT 06/M04 A303 RMK A01 T00631042  RH  047%=      5-min Rain = 0
KLE1 191916Z 32020G27KT 06/M04 A3029 RMK A01 T00641042  RH  047%=      5-min Rain = 0
KLE1 191917Z 34022G27KT 07/M04 A3029 RMK A01 T00651042  RH  046%=      5-min Rain = 0
KLE1 191918Z 34020KT 07/M04 A303 RMK A01 T00661042  RH  046%=      5-min Rain = 0
KLE1 191919Z 33020G28KT 07/M04 A303 RMK A01 T00661042  RH  046%=      5-min Rain = 0
KLE1 191920Z 32023KT 06/M04 A303 RMK A01 T00641043  RH  046%=      5-min Rain = 0
KLE1 191921Z 32023KT 06/M04 A303 RMK A01 T00621043  RH  047%=      5-min Rain = 0
KLE1 191922Z 32020KT 06/M04 A3029 RMK A01 T00631041  RH  047%=      5-min Rain = 0
KLE1 191923Z 33022G28KT 06/M04 A3029 RMK A01 T00631043  RH  047%=      5-min Rain = 0
KLE1 191924Z 34021KT 06/M04 A3029 RMK A01 T00621043  RH  047%=      5-min Rain = 0
KLE1 191925Z 34020KT 06/M04 A3029 RMK A01 T00621042  RH  047%=      5-min Rain = 0
KLE1 191926Z 35020KT 06/M04 A3029 RMK A01 T00641042  RH  047%=      5-min Rain = 0
KLE1 191927Z 33020G25KT 06/M04 A3029 RMK A01 T00641042  RH  047%=      5-min Rain = 0
KLE1 191928Z 34021KT 06/M04 A3029 RMK A01 T00641042  RH  047%=      5-min Rain = 0
KLE1 191929Z 34020KT 07/M04 A3029 RMK A01 T00651042  RH  047%=      5-min Rain = 0
KLE1 191930Z 34018KT 07/M04 A3029 RMK A01 T00651041  RH  047%=      5-min Rain = 0
KLE1 191931Z 33016KT 07/M04 A3028 RMK A01 T00651042  RH  047%=      5-min Rain = 0
KLE1 191932Z 33019KT 07/M04 A3028 RMK A01 T00651041  RH  047%=      5-min Rain = 0
KLE1 191933Z 32021KT 07/M04 A3028 RMK A01 T00671040  RH  046%=      5-min Rain = 0
KLE1 191934Z 33016KT 07/M04 A3028 RMK A01 T00671041  RH  046%=      5-min Rain = 0
KLE1 191935Z 34019G28KT 07/M04 A3028 RMK A01 T00701039  RH  046%=      5-min Rain = 0
KLE1 191936Z 33023KT 07/M04 A3028 RMK A01 T00711040  RH  045%=      5-min Rain = 0
KLE1 191937Z 33023KT 07/M04 A3028 RMK A01 T00701042  RH  045%=      5-min Rain = 0
KLE1 191938Z 33020G25KT 07/M04 A3028 RMK A01 T00671042  RH  045%=      5-min Rain = 0
KLE1 191939Z 33020G25KT 07/M04 A3028 RMK A01 T00671041  RH  046%=      5-min Rain = 0
KLE1 191940Z 33019KT 07/M04 A3028 RMK A01 T00671041  RH  046%=      5-min Rain = 0
KLE1 191941Z 33018KT 07/M04 A3028 RMK A01 T00671041  RH  046%=      5-min Rain = 0
KLE1 191942Z 35018KT 07/M04 A3028 RMK A01 T00701038  RH  046%=      5-min Rain = 0
KLE1 191943Z 34017KT 07/M04 A3028 RMK A01 T00711039  RH  045%=      5-min Rain = 0
KLE1 191944Z 32019KT 07/M04 A3028 RMK A01 T00711040  RH  045%=      5-min Rain = 0
KLE1 191945Z 32019KT 07/M04 A3028 RMK A01 T00711040  RH  045%=      5-min Rain = 0
KLE1 191946Z 32019KT 07/M04 A3028 RMK A01 T00691041  RH  045%=      5-min Rain = 0
KLE1 191947Z 33018KT 07/M04 A3028 RMK A01 T00691039  RH  046%=      5-min Rain = 0
KLE1 191948Z 33019KT 07/M04 A3028 RMK A01 T00691040  RH  046%=      5-min Rain = 0
KLE1 191949Z 33019KT 07/M04 A3028 RMK A01 T00701039  RH  046%=      5-min Rain = 0
KLE1 191950Z 32018KT 07/M04 A3028 RMK A01 T00711039  RH  046%=      5-min Rain = 0
KLE1 191951Z 33018KT 07/M04 A3028 RMK A01 T00721039  RH  045%=      5-min Rain = 0
KLE1 191952Z 34017KT 07/M04 A3028 RMK A01 T00731038  RH  045%=      5-min Rain = 0
KLE1 191953Z 34017KT 07/M04 A3028 RMK A01 T00721040  RH  045%=      5-min Rain = 0
KLE1 191954Z 33016KT 07/M04 A3028 RMK A01 T00711039  RH  045%=      5-min Rain = 0
KLE1 191955Z 33023KT 07/M04 A3027 RMK A01 T00741037  RH  045%=      5-min Rain = 0
KLE1 191956Z 34018G23KT 07/M04 A3028 RMK A01 T00731040  RH  044%=      5-min Rain = 0
KLE1 191957Z 33016KT 07/M04 A3028 RMK A01 T00721039  RH  045%=      5-min Rain = 0
KLE1 191958Z 33020KT 07/M04 A3028 RMK A01 T00731040  RH  045%=      5-min Rain = 0
KLE1 191959Z 33018KT 07/M04 A3028 RMK A01 T00721041  RH  045%=      5-min Rain = 0
KLE1 192000Z 34016KT 07/M04 A3028 RMK A01 T00731038  RH  045%=      5-min Rain = 0
KLE1 192001Z 34017KT 08/M04 A3028 RMK A01 T00751038  RH  044%=      5-min Rain = 0
KLE1 192002Z 34015G21KT 08/M04 A3028 RMK A01 T00751038  RH  044%=      5-min Rain = 0
KLE1 192003Z 34017KT 08/M04 A3027 RMK A01 T00791037  RH  044%=      5-min Rain = 0
KLE1 192004Z 33018KT 08/M04 A3027 RMK A01 T00791039  RH  043%=      5-min Rain = 0
KLE1 192005Z 34019KT 08/M04 A3027 RMK A01 T00771040  RH  043%=      5-min Rain = 0
KLE1 192006Z 34018G23KT 08/M04 A3027 RMK A01 T00761040  RH  043%=      5-min Rain = 0
KLE1 192007Z 35020KT 08/M04 A3027 RMK A01 T00761040  RH  044%=      5-min Rain = 0
KLE1 192008Z 33019KT 08/M04 A3027 RMK A01 T00771040  RH  044%=      5-min Rain = 0
KLE1 192009Z 32020KT 08/M04 A3027 RMK A01 T00771040  RH  043%=      5-min Rain = 0
KLE1 192010Z 33019KT 08/M04 A3027 RMK A01 T00761041  RH  044%=      5-min Rain = 0
KLE1 192011Z 34020KT 07/M04 A3027 RMK A01 T00741041  RH  044%=      5-min Rain = 0
KLE1 192012Z 34016KT 07/M04 A3027 RMK A01 T00721042  RH  044%=      5-min Rain = 0
KLE1 192013Z 33017KT 07/M04 A3027 RMK A01 T00721039  RH  045%=      5-min Rain = 0
KLE1 192014Z 32018KT 08/M04 A3027 RMK A01 T00781036  RH  044%=      5-min Rain = 0
KLE1 192015Z 32017KT 08/M04 A3027 RMK A01 T00781038  RH  043%=      5-min Rain = 0
KLE1 192016Z 32018KT 08/M04 A3027 RMK A01 T00771039  RH  044%=      5-min Rain = 0
KLE1 192017Z 33016KT 08/M04 A3027 RMK A01 T00761038  RH  044%=      5-min Rain = 0
KLE1 192018Z 34016G21KT 08/M03 A3027 RMK A01 T00811034  RH  044%=      5-min Rain = 0
KLE1 192019Z 35016KT 08/M04 A3027 RMK A01 T00821038  RH  043%=      5-min Rain = 0
KLE1 192020Z 35015KT 08/M04 A3027 RMK A01 T00791039  RH  043%=      5-min Rain = 0
KLE1 192021Z 35016KT 08/M04 A3027 RMK A01 T00791038  RH  043%=      5-min Rain = 0
KLE1 192022Z 33015KT 08/M04 A3027 RMK A01 T00801037  RH  043%=      5-min Rain = 0
KLE1 192023Z 32021KT 08/M04 A3027 RMK A01 T00811037  RH  043%=      5-min Rain = 0
KLE1 192024Z 33017KT 08/M04 A3027 RMK A01 T00791040  RH  043%=      5-min Rain = 0
KLE1 192025Z 34020KT 08/M04 A3027 RMK A01 T00761040  RH  044%=      5-min Rain = 0
KLE1 192026Z 34019KT 08/M04 A3026 RMK A01 T00771039  RH  043%=      5-min Rain = 0
KLE1 192027Z 34021G26KT 08/M04 A3026 RMK A01 T00781039  RH  043%=      5-min Rain = 0
KLE1 192028Z 35019KT 08/M04 A3026 RMK A01 T00791039  RH  043%=      5-min Rain = 0
KLE1 192029Z 35019KT 08/M04 A3026 RMK A01 T00801038  RH  043%=      5-min Rain = 0
KLE1 192030Z 35020G25KT 08/M04 A3026 RMK A01 T00801039  RH  043%=      5-min Rain = 0
KLE1 192031Z 35020KT 08/M04 A3026 RMK A01 T00781039  RH  043%=      5-min Rain = 0
KLE1 192032Z 34019KT 08/M04 A3026 RMK A01 T00781039  RH  043%=      5-min Rain = 0
KLE1 192033Z 34017KT 08/M04 A3026 RMK A01 T00771038  RH  044%=      5-min Rain = 0
KLE1 192034Z 34016KT 08/M04 A3026 RMK A01 T00801036  RH  044%=      5-min Rain = 0
KLE1 192035Z 34016G21KT 08/M04 A3026 RMK A01 T00831035  RH  043%=      5-min Rain = 0
KLE1 192036Z 35016G21KT 08/M04 A3026 RMK A01 T00841035  RH  043%=      5-min Rain = 0
KLE1 192037Z 35019KT 08/M04 A3026 RMK A01 T00831036  RH  043%=      5-min Rain = 0
KLE1 192038Z 34015KT 08/M04 A3026 RMK A01 T00831036  RH  043%=      5-min Rain = 0
KLE1 192039Z 34017KT 09/M03 A3026 RMK A01 T00851034  RH  043%=      5-min Rain = 0
KLE1 192040Z 33016KT 09/M04 A3026 RMK A01 T00851035  RH  043%=      5-min Rain = 0
KLE1 192041Z 32018KT 08/M04 A3026 RMK A01 T00841035  RH  043%=      5-min Rain = 0
KLE1 192042Z 32022KT 08/M04 A3026 RMK A01 T00831036  RH  043%=      5-min Rain = 0
KLE1 192043Z 33017KT 08/M04 A3026 RMK A01 T00811038  RH  043%=      5-min Rain = 0
KLE1 192044Z 33017KT 08/M04 A3026 RMK A01 T00791038  RH  043%=      5-min Rain = 0
KLE1 192045Z 33017KT 08/M04 A3026 RMK A01 T00791037  RH  044%=      5-min Rain = 0
KLE1 192046Z 33015KT 08/M04 A3026 RMK A01 T00801035  RH  044%=      5-min Rain = 0
KLE1 192047Z 34019KT 08/M04 A3026 RMK A01 T00821035  RH  044%=      5-min Rain = 0
KLE1 192048Z 34019KT 08/M04 A3026 RMK A01 T00811037  RH  043%=      5-min Rain = 0
KLE1 192049Z 35019KT 08/M04 A3026 RMK A01 T00791038  RH  043%=      5-min Rain = 0
KLE1 192050Z 34021G26KT 08/M04 A3026 RMK A01 T00791037  RH  044%=      5-min Rain = 0
KLE1 192051Z 33021G26KT 08/M04 A3026 RMK A01 T00801038  RH  043%=      5-min Rain = 0
KLE1 192052Z 33021KT 08/M04 A3026 RMK A01 T00801038  RH  043%=      5-min Rain = 0
KLE1 192053Z 33021KT 08/M04 A3026 RMK A01 T00781038  RH  044%=      5-min Rain = 0
KLE1 192054Z 34020KT 08/M04 A3026 RMK A01 T00781038  RH  044%=      5-min Rain = 0
KLE1 192055Z 34019KT 08/M04 A3026 RMK A01 T00781038  RH  044%=      5-min Rain = 0
KLE1 192056Z 33018KT 08/M04 A3026 RMK A01 T00791037  RH  044%=      5-min Rain = 0
KLE1 192057Z 34019G24KT 08/M04 A3026 RMK A01 T00791037  RH  044%=      5-min Rain = 0
KLE1 192058Z 34017KT 08/M04 A3026 RMK A01 T00801036  RH  044%=      5-min Rain = 0
KLE1 192059Z 34018KT 08/M04 A3026 RMK A01 T00811035  RH  044%=      5-min Rain = 0
KLE1 192100Z 33016KT 08/M04 A3026 RMK A01 T00811035  RH  044%=      5-min Rain = 0
KLE1 192101Z 33015KT 08/M04 A3026 RMK A01 T00821035  RH  043%=      5-min Rain = 0
KLE1 192102Z 33018G23KT 08/M04 A3026 RMK A01 T00821035  RH  043%=      5-min Rain = 0
KLE1 192103Z 33021KT 08/M04 A3026 RMK A01 T00821035  RH  043%=      5-min Rain = 0
KLE1 192104Z 32018G23KT 08/M04 A3026 RMK A01 T00821035  RH  043%=      5-min Rain = 0
KLE1 192105Z 33019KT 08/M04 A3026 RMK A01 T00821035  RH  043%=      5-min Rain = 0
KLE1 192106Z 33017KT 08/M04 A3026 RMK A01 T00831035  RH  043%=      5-min Rain = 0
KLE1 192107Z 34016KT 08/M03 A3026 RMK A01 T00831034  RH  043%=      5-min Rain = 0
KLE1 192108Z 33017KT 08/M03 A3026 RMK A01 T00841034  RH  043%=      5-min Rain = 0
KLE1 192109Z 33019KT 08/M03 A3026 RMK A01 T00841034  RH  043%=      5-min Rain = 0
KLE1 192110Z 33017KT 08/M03 A3026 RMK A01 T00841034  RH  043%=      5-min Rain = 0
KLE1 192111Z 33015KT 08/M03 A3026 RMK A01 T00841034  RH  043%=      5-min Rain = 0
KLE1 192112Z 33020KT 08/M03 A3026 RMK A01 T00831034  RH  043%=      5-min Rain = 0
KLE1 192113Z 31018KT 08/M03 A3026 RMK A01 T00831034  RH  044%=      5-min Rain = 0
KLE1 192114Z 32018KT 08/M03 A3026 RMK A01 T00821034  RH  044%=      5-min Rain = 0
KLE1 192115Z 33020G25KT 08/M03 A3026 RMK A01 T00821034  RH  044%=      5-min Rain = 0
KLE1 192116Z 32017KT 08/M03 A3026 RMK A01 T00821033  RH  044%=      5-min Rain = 0
KLE1 192117Z 32020KT 08/M03 A3026 RMK A01 T00831032  RH  044%=      5-min Rain = 0
KLE1 192118Z 33016KT 08/M03 A3026 RMK A01 T00831033  RH  044%=      5-min Rain = 0
KLE1 192119Z 33019KT 08/M04 A3026 RMK A01 T00831035  RH  043%=      5-min Rain = 0
KLE1 192120Z 33020KT 08/M04 A3026 RMK A01 T00821036  RH  043%=      5-min Rain = 0
KLE1 192121Z 33018KT 08/M04 A3026 RMK A01 T00811037  RH  043%=      5-min Rain = 0
KLE1 192122Z 33016KT 08/M04 A3026 RMK A01 T00811035  RH  044%=      5-min Rain = 0
KLE1 192123Z 34016KT 08/M03 A3027 RMK A01 T00831033  RH  044%=      5-min Rain = 0
KLE1 192124Z 34016KT 08/M03 A3027 RMK A01 T00841034  RH  043%=      5-min Rain = 0
KLE1 192125Z 33017KT 08/M03 A3027 RMK A01 T00831034  RH  043%=      5-min Rain = 0
KLE1 192126Z 32014KT 08/M03 A3027 RMK A01 T00811034  RH  044%=      5-min Rain = 0
KLE1 192127Z 32014KT 08/M03 A3027 RMK A01 T00821032  RH  045%=      5-min Rain = 0
KLE1 192128Z 32012KT 08/M03 A3027 RMK A01 T00831031  RH  044%=      5-min Rain = 0
KLE1 192129Z 32015KT 09/M03 A3027 RMK A01 T00851031  RH  044%=      5-min Rain = 0
KLE1 192130Z 32019KT 09/M03 A3027 RMK A01 T00871032  RH  043%=      5-min Rain = 0
KLE1 192131Z 32019KT 09/M03 A3027 RMK A01 T00851034  RH  043%=      5-min Rain = 0
KLE1 192132Z 33020KT 08/M03 A3027 RMK A01 T00831034  RH  043%=      5-min Rain = 0
KLE1 192133Z 33017KT 08/M04 A3027 RMK A01 T00821035  RH  044%=      5-min Rain = 0
KLE1 192134Z 33013KT 08/M03 A3027 RMK A01 T00821033  RH  044%=      5-min Rain = 0
KLE1 192135Z 33012KT 08/M03 A3027 RMK A01 T00831032  RH  044%=      5-min Rain = 0
KLE1 192136Z 33013G19KT 08/M03 A3027 RMK A01 T00831033  RH  044%=      5-min Rain = 0
KLE1 192137Z 33015KT 08/M03 A3027 RMK A01 T00841033  RH  044%=      5-min Rain = 0
KLE1 192138Z 33013KT 09/M03 A3027 RMK A01 T00861032  RH  043%=      5-min Rain = 0
KLE1 192139Z 34013KT 09/M03 A3027 RMK A01 T00871031  RH  043%=      5-min Rain = 0
KLE1 192140Z 34015KT 09/M03 A3027 RMK A01 T00891031  RH  043%=      5-min Rain = 0
KLE1 192141Z 34017KT 09/M03 A3027 RMK A01 T00891032  RH  042%=      5-min Rain = 0
KLE1 192142Z 35015KT 09/M03 A3027 RMK A01 T00861033  RH  043%=      5-min Rain = 0
KLE1 192143Z 34014KT 09/M03 A3027 RMK A01 T00851033  RH  043%=      5-min Rain = 0
KLE1 192144Z 33014G19KT 09/M03 A3027 RMK A01 T00851031  RH  044%=      5-min Rain = 0
KLE1 192145Z 32017KT 09/M03 A3027 RMK A01 T00871032  RH  043%=      5-min Rain = 0
KLE1 192146Z 32013KT 09/M03 A3028 RMK A01 T00851033  RH  043%=      5-min Rain = 0
KLE1 192147Z 33015KT 08/M03 A3027 RMK A01 T00841032  RH  044%=      5-min Rain = 0
KLE1 192148Z 33015KT 09/M03 A3027 RMK A01 T00851032  RH  044%=      5-min Rain = 0
KLE1 192149Z 34017KT 09/M03 A3027 RMK A01 T00851032  RH  043%=      5-min Rain = 0
KLE1 192150Z 34015KT 09/M03 A3028 RMK A01 T00851033  RH  043%=      5-min Rain = 0
KLE1 192151Z 33013KT 08/M03 A3028 RMK A01 T00841032  RH  044%=      5-min Rain = 0
KLE1 192152Z 33014KT 09/M03 A3028 RMK A01 T00871030  RH  044%=      5-min Rain = 0
KLE1 192153Z 33013KT 09/M03 A3028 RMK A01 T00901030  RH  043%=      5-min Rain = 0
KLE1 192154Z 33015KT 09/M03 A3028 RMK A01 T00891030  RH  043%=      5-min Rain = 0
KLE1 192155Z 33012KT 09/M03 A3028 RMK A01 T00871031  RH  043%=      5-min Rain = 0
KLE1 192156Z 31015KT 09/M03 A3028 RMK A01 T00861030  RH  044%=      5-min Rain = 0
KLE1 192157Z 31013KT 09/M03 A3028 RMK A01 T00861030  RH  044%=      5-min Rain = 0
KLE1 192158Z 31012KT 08/M03 A3028 RMK A01 T00841031  RH  044%=      5-min Rain = 0
KLE1 192159Z 33011KT 08/M03 A3028 RMK A01 T00831030  RH  045%=      5-min Rain = 0
KLE1 192200Z 34011KT 09/M03 A3028 RMK A01 T00861028  RH  045%=      5-min Rain = 0
KLE1 192201Z 33011KT 09/M03 A3028 RMK A01 T00871029  RH  044%=      5-min Rain = 0
KLE1 192202Z 33012KT 09/M03 A3028 RMK A01 T00891028  RH  044%=      5-min Rain = 0
KLE1 192203Z 31015KT 09/M03 A3027 RMK A01 T00901029  RH  043%=      5-min Rain = 0
KLE1 192204Z 32017KT 09/M03 A3027 RMK A01 T00891030  RH  043%=      5-min Rain = 0
KLE1 192205Z 32015KT 09/M03 A3027 RMK A01 T00881031  RH  043%=      5-min Rain = 0
KLE1 192206Z 32014KT 09/M03 A3027 RMK A01 T00871031  RH  043%=      5-min Rain = 0
KLE1 192207Z 33014KT 09/M03 A3027 RMK A01 T00861031  RH  044%=      5-min Rain = 0
KLE1 192208Z 32014KT 09/M03 A3027 RMK A01 T00861031  RH  044%=      5-min Rain = 0
KLE1 192209Z 32013KT 09/M03 A3027 RMK A01 T00861031  RH  044%=      5-min Rain = 0
KLE1 192210Z 32011KT 09/M03 A3027 RMK A01 T00871030  RH  044%=      5-min Rain = 0
KLE1 192211Z 31014KT 09/M03 A3027 RMK A01 T00881029  RH  044%=      5-min Rain = 0
KLE1 192212Z 32012KT 09/M03 A3027 RMK A01 T00881029  RH  043%=      5-min Rain = 0
KLE1 192213Z 34013KT 09/M03 A3027 RMK A01 T00881029  RH  044%=      5-min Rain = 0
KLE1 192214Z 33014KT 09/M03 A3027 RMK A01 T00881030  RH  043%=      5-min Rain = 0
KLE1 192215Z 32017G22KT 09/M03 A3027 RMK A01 T00871031  RH  043%=      5-min Rain = 0
KLE1 192216Z 33019KT 09/M03 A3027 RMK A01 T00861032  RH  043%=      5-min Rain = 0
KLE1 192217Z 34016KT 09/M03 A3027 RMK A01 T00851032  RH  043%=      5-min Rain = 0
KLE1 192218Z 33013KT 09/M03 A3027 RMK A01 T00851032  RH  044%=      5-min Rain = 0
KLE1 192219Z 33015KT 09/M03 A3027 RMK A01 T00861032  RH  043%=      5-min Rain = 0
KLE1 192220Z 33013KT 09/M03 A3027 RMK A01 T00851032  RH  043%=      5-min Rain = 0
KLE1 192221Z 32012KT 09/M03 A3027 RMK A01 T00851032  RH  043%=      5-min Rain = 0
KLE1 192222Z 32014KT 08/M03 A3027 RMK A01 T00841032  RH  044%=      5-min Rain = 0
KLE1 192223Z 33014KT 09/M03 A3027 RMK A01 T00851031  RH  044%=      5-min Rain = 0
KLE1 192224Z 33016KT 09/M03 A3027 RMK A01 T00851031  RH  044%=      5-min Rain = 0
KLE1 192225Z 33013KT 09/M03 A3027 RMK A01 T00851031  RH  044%=      5-min Rain = 0
KLE1 192226Z 33015KT 09/M03 A3027 RMK A01 T00851030  RH  044%=      5-min Rain = 0
KLE1 192227Z 33015KT 09/M03 A3027 RMK A01 T00851031  RH  044%=      5-min Rain = 0
KLE1 192228Z 34013KT 09/M03 A3027 RMK A01 T00851031  RH  044%=      5-min Rain = 0
KLE1 192229Z 34013KT 09/M03 A3027 RMK A01 T00851031  RH  044%=      5-min Rain = 0
KLE1 192230Z 34014KT 09/M03 A3027 RMK A01 T00851031  RH  044%=      5-min Rain = 0
KLE1 192231Z 34012KT 09/M03 A3027 RMK A01 T00851031  RH  044%=      5-min Rain = 0
KLE1 192232Z 33013KT 09/M03 A3027 RMK A01 T00851030  RH  044%=      5-min Rain = 0
KLE1 192233Z 33016KT 09/M03 A3027 RMK A01 T00861030  RH  044%=      5-min Rain = 0
KLE1 192234Z 34015KT 09/M03 A3027 RMK A01 T00851031  RH  044%=      5-min Rain = 0
KLE1 192235Z 34015KT 08/M03 A3028 RMK A01 T00831032  RH  044%=      5-min Rain = 0
KLE1 192236Z 33017KT 08/M03 A3028 RMK A01 T00821033  RH  044%=      5-min Rain = 0
KLE1 192237Z 34016KT 08/M03 A3028 RMK A01 T00811032  RH  045%=      5-min Rain = 0
KLE1 192238Z 34013KT 08/M03 A3028 RMK A01 T00811032  RH  045%=      5-min Rain = 0
KLE1 192239Z 34013KT 08/M03 A3028 RMK A01 T00811031  RH  045%=      5-min Rain = 0
KLE1 192240Z 34012KT 08/M03 A3028 RMK A01 T00811031  RH  045%=      5-min Rain = 0
KLE1 192241Z 34011G16KT 08/M03 A3028 RMK A01 T00821031  RH  045%=      5-min Rain = 0
KLE1 192242Z 33015KT 08/M03 A3028 RMK A01 T00831033  RH  044%=      5-min Rain = 0
KLE1 192243Z 34014KT 08/M04 A3028 RMK A01 T00831035  RH  043%=      5-min Rain = 0
KLE1 192244Z 33012KT 08/M03 A3028 RMK A01 T00821034  RH  044%=      5-min Rain = 0
KLE1 192245Z 33014KT 08/M03 A3028 RMK A01 T00821033  RH  044%=      5-min Rain = 0
KLE1 192246Z 34011KT 08/M03 A3028 RMK A01 T00821033  RH  044%=      5-min Rain = 0
KLE1 192247Z 33010KT 08/M03 A3028 RMK A01 T00821032  RH  044%=      5-min Rain = 0
KLE1 192248Z 33009KT 08/M03 A3028 RMK A01 T00841031  RH  044%=      5-min Rain = 0
KLE1 192249Z 34009KT 09/M03 A3028 RMK A01 T00851031  RH  044%=      5-min Rain = 0
KLE1 192250Z 34011KT 09/M03 A3028 RMK A01 T00851031  RH  044%=      5-min Rain = 0
KLE1 192251Z 34012KT 09/M03 A3028 RMK A01 T00851032  RH  044%=      5-min Rain = 0
KLE1 192252Z 34013KT 08/M03 A3028 RMK A01 T00841032  RH  044%=      5-min Rain = 0
KLE1 192253Z 34013KT 08/M03 A3028 RMK A01 T00831032  RH  044%=      5-min Rain = 0
KLE1 192254Z 33012KT 08/M03 A3028 RMK A01 T00821033  RH  044%=      5-min Rain = 0
KLE1 192255Z 33012KT 08/M03 A3028 RMK A01 T00821033  RH  044%=      5-min Rain = 0
KLE1 192256Z 33013KT 08/M03 A3028 RMK A01 T00831034  RH  044%=      5-min Rain = 0
KLE1 192257Z 34016KT 08/M04 A3028 RMK A01 T00821035  RH  043%=      5-min Rain = 0
KLE1 192258Z 34013KT 08/M03 A3028 RMK A01 T00821034  RH  044%=      5-min Rain = 0
KLE1 192259Z 34012KT 08/M03 A3028 RMK A01 T00811034  RH  044%=      5-min Rain = 0
KLE1 192300Z 33012KT 08/M03 A3028 RMK A01 T00811034  RH  044%=      5-min Rain = 0
KLE1 192301Z 34012KT 08/M03 A3028 RMK A01 T00811034  RH  044%=      5-min Rain = 0
KLE1 192302Z 34011KT 08/M03 A3028 RMK A01 T00801034  RH  044%=      5-min Rain = 0
KLE1 192303Z 34011KT 08/M03 A3028 RMK A01 T00801034  RH  044%=      5-min Rain = 0
KLE1 192304Z 35010KT 08/M03 A3028 RMK A01 T00791034  RH  045%=      5-min Rain = 0
KLE1 192305Z 35010KT 08/M03 A3028 RMK A01 T00801033  RH  045%=      5-min Rain = 0
KLE1 192306Z 35010KT 08/M03 A3028 RMK A01 T00791033  RH  045%=      5-min Rain = 0
KLE1 192307Z 34010KT 08/M03 A3028 RMK A01 T00791033  RH  045%=      5-min Rain = 0
KLE1 192308Z 33009KT 08/M03 A3028 RMK A01 T00791033  RH  045%=      5-min Rain = 0
KLE1 192309Z 35009KT 08/M03 A3028 RMK A01 T00791033  RH  045%=      5-min Rain = 0
KLE1 192310Z 35010KT 08/M03 A3028 RMK A01 T00791033  RH  045%=      5-min Rain = 0
KLE1 192311Z 34009KT 08/M03 A3028 RMK A01 T00791032  RH  045%=      5-min Rain = 0
KLE1 192312Z 34012KT 08/M03 A3028 RMK A01 T00791032  RH  045%=      5-min Rain = 0
KLE1 192313Z 33012KT 08/M03 A3028 RMK A01 T00791033  RH  045%=      5-min Rain = 0
KLE1 192314Z 33013KT 08/M03 A3028 RMK A01 T00791034  RH  045%=      5-min Rain = 0
KLE1 192315Z 33014KT 08/M03 A3028 RMK A01 T00781034  RH  045%=      5-min Rain = 0
KLE1 192316Z 34013KT 08/M03 A3028 RMK A01 T00781034  RH  045%=      5-min Rain = 0
KLE1 192317Z 34012KT 08/M03 A3028 RMK A01 T00781034  RH  045%=      5-min Rain = 0
KLE1 192318Z 34013KT 08/M03 A3028 RMK A01 T00771034  RH  045%=      5-min Rain = 0
KLE1 192319Z 35012KT 08/M03 A3028 RMK A01 T00771034  RH  045%=      5-min Rain = 0
KLE1 192320Z 35012KT 08/M03 A3028 RMK A01 T00761034  RH  046%=      5-min Rain = 0
KLE1 192321Z 35010KT 08/M03 A3028 RMK A01 T00761034  RH  046%=      5-min Rain = 0
KLE1 192322Z 34011KT 08/M03 A3028 RMK A01 T00761034  RH  046%=      5-min Rain = 0
KLE1 192323Z 35010KT 08/M03 A3028 RMK A01 T00761033  RH  046%=      5-min Rain = 0
KLE1 192324Z 34011KT 08/M03 A3028 RMK A01 T00761033  RH  046%=      5-min Rain = 0
KLE1 192325Z 34011KT 08/M03 A3028 RMK A01 T00751033  RH  046%=      5-min Rain = 0
KLE1 192326Z 33009KT 08/M03 A3028 RMK A01 T00751032  RH  046%=      5-min Rain = 0
KLE1 192327Z 33009KT 08/M03 A3028 RMK A01 T00751033  RH  046%=      5-min Rain = 0
KLE1 192328Z 33011KT 08/M03 A3028 RMK A01 T00751033  RH  046%=      5-min Rain = 0
KLE1 192329Z 33011KT 08/M03 A3028 RMK A01 T00751032  RH  047%=      5-min Rain = 0
KLE1 192330Z 33010KT 08/M03 A3028 RMK A01 T00751032  RH  047%=      5-min Rain = 0
KLE1 192331Z 33010KT 08/M03 A3028 RMK A01 T00751032  RH  047%=      5-min Rain = 0
KLE1 192332Z 33011KT 08/M03 A3028 RMK A01 T00751032  RH  047%=      5-min Rain = 0
KLE1 192333Z 32010KT 07/M03 A3028 RMK A01 T00741033  RH  047%=      5-min Rain = 0
KLE1 192334Z 33010KT 07/M03 A3028 RMK A01 T00741033  RH  047%=      5-min Rain = 0
KLE1 192335Z 33010KT 07/M03 A3028 RMK A01 T00731033  RH  047%=      5-min Rain = 0
KLE1 192336Z 33011KT 07/M03 A3028 RMK A01 T00731034  RH  047%=      5-min Rain = 0
KLE1 192337Z 33011KT 07/M03 A3028 RMK A01 T00731033  RH  047%=      5-min Rain = 0
KLE1 192338Z 32011KT 07/M03 A3028 RMK A01 T00721033  RH  047%=      5-min Rain = 0
KLE1 192339Z 32010KT 07/M03 A3028 RMK A01 T00721033  RH  047%=      5-min Rain = 0
KLE1 192340Z 32009KT 07/M03 A3028 RMK A01 T00721033  RH  047%=      5-min Rain = 0
KLE1 192341Z 32008KT 07/M03 A3028 RMK A01 T00711034  RH  047%=      5-min Rain = 0
KLE1 192342Z 32009KT 07/M03 A3028 RMK A01 T00701034  RH  048%=      5-min Rain = 0
KLE1 192343Z 32009KT 07/M03 A3028 RMK A01 T00691033  RH  048%=      5-min Rain = 0
KLE1 192344Z 32010KT 07/M03 A3028 RMK A01 T00691033  RH  048%=      5-min Rain = 0
KLE1 192345Z 33010KT 07/M03 A3028 RMK A01 T00691032  RH  048%=      5-min Rain = 0
KLE1 192346Z 33009KT 07/M03 A3028 RMK A01 T00691033  RH  048%=      5-min Rain = 0
KLE1 192347Z 33009KT 07/M03 A3028 RMK A01 T00691033  RH  048%=      5-min Rain = 0
KLE1 192348Z 33010KT 07/M03 A3028 RMK A01 T00681033  RH  049%=      5-min Rain = 0
KLE1 192349Z 33010KT 07/M03 A3028 RMK A01 T00671033  RH  049%=      5-min Rain = 0
KLE1 192350Z 33009KT 07/M03 A3028 RMK A01 T00671033  RH  049%=      5-min Rain = 0
KLE1 192351Z 33009KT 07/M03 A3028 RMK A01 T00651034  RH  049%=      5-min Rain = 0
KLE1 192352Z 33010KT 06/M03 A3028 RMK A01 T00641034  RH  049%=      5-min Rain = 0
KLE1 192353Z 33010KT 06/M03 A3028 RMK A01 T00631034  RH  050%=      5-min Rain = 0
KLE1 192354Z 33009KT 06/M03 A3028 RMK A01 T00621034  RH  050%=      5-min Rain = 0
KLE1 192355Z 33009KT 06/M03 A3028 RMK A01 T00621034  RH  050%=      5-min Rain = 0
KLE1 192356Z 33009KT 06/M03 A3028 RMK A01 T00601034  RH  051%=      5-min Rain = 0
KLE1 192357Z 33009KT 06/M03 A3028 RMK A01 T00601034  RH  051%=      5-min Rain = 0
KLE1 192358Z 33009KT 06/M03 A3028 RMK A01 T00591034  RH  051%=      5-min Rain = 0
KLE1 192359Z 32009KT 06/M03 A3028 RMK A01 T00581034  RH  052%=      5-min Rain = 0
KLE1 200000Z 33010KT 06/M03 A3028 RMK A01 T00581033  RH  052%=      5-min Rain = 0
KLE1 200001Z 33009KT 06/M03 A3028 RMK A01 T00581033  RH  052%=      5-min Rain = 0
KLE1 200002Z 33010KT 06/M03 A3028 RMK A01 T00581033  RH  052%=      5-min Rain = 0
KLE1 200003Z 33010KT 06/M03 A3028 RMK A01 T00571033  RH  052%=      5-min Rain = 0
KLE1 200004Z 33010KT 06/M03 A3028 RMK A01 T00571034  RH  052%=      5-min Rain = 0
KLE1 200005Z 33009KT 06/M03 A3028 RMK A01 T00561034  RH  052%=      5-min Rain = 0
KLE1 200006Z 34009KT 06/M03 A3028 RMK A01 T00551034  RH  053%=      5-min Rain = 0
KLE1 200007Z 34009KT 06/M03 A3028 RMK A01 T00551034  RH  053%=      5-min Rain = 0
KLE1 200008Z 34009KT 05/M03 A3028 RMK A01 T00541034  RH  053%=      5-min Rain = 0
KLE1 200009Z 34009KT 05/M03 A3028 RMK A01 T00541034  RH  053%=      5-min Rain = 0
KLE1 200010Z 34008KT 05/M03 A3028 RMK A01 T00541034  RH  053%=      5-min Rain = 0
KLE1 200011Z 34008KT 05/M04 A3028 RMK A01 T00531035  RH  053%=      5-min Rain = 0
KLE1 200012Z 34008KT 05/M04 A3028 RMK A01 T00521036  RH  053%=      5-min Rain = 0
KLE1 200013Z 34008KT 05/M04 A3028 RMK A01 T00501036  RH  054%=      5-min Rain = 0
KLE1 200014Z 34008KT 05/M04 A3028 RMK A01 T00491036  RH  054%=      5-min Rain = 0
KLE1 200015Z 35008KT 05/M04 A3028 RMK A01 T00481036  RH  054%=      5-min Rain = 0
KLE1 200016Z 35007KT 05/M04 A3028 RMK A01 T00471037  RH  055%=      5-min Rain = 0
KLE1 200017Z 35007KT 05/M04 A3028 RMK A01 T00461037  RH  055%=      5-min Rain = 0
KLE1 200018Z 35007KT 05/M04 A3028 RMK A01 T00461037  RH  055%=      5-min Rain = 0
KLE1 200019Z 35007KT 05/M04 A3028 RMK A01 T00451037  RH  055%=      5-min Rain = 0
KLE1 200020Z 35008KT 04/M04 A3028 RMK A01 T00441037  RH  055%=      5-min Rain = 0
KLE1 200021Z 35008KT 04/M04 A3029 RMK A01 T00441037  RH  056%=      5-min Rain = 0
KLE1 200022Z 35008KT 04/M04 A3028 RMK A01 T00431037  RH  056%=      5-min Rain = 0
KLE1 200023Z 35008KT 04/M04 A3028 RMK A01 T00431037  RH  056%=      5-min Rain = 0
KLE1 200024Z 35008KT 04/M04 A3028 RMK A01 T00431037  RH  056%=      5-min Rain = 0
KLE1 200025Z 35007KT 04/M04 A3028 RMK A01 T00431037  RH  056%=      5-min Rain = 0
KLE1 200026Z 36007KT 04/M04 A3029 RMK A01 T00431036  RH  056%=      5-min Rain = 0
KLE1 200027Z 36007KT 04/M04 A3029 RMK A01 T00431036  RH  056%=      5-min Rain = 0
KLE1 200028Z 36007KT 04/M04 A3029 RMK A01 T00431037  RH  056%=      5-min Rain = 0
KLE1 200029Z 36006KT 04/M04 A3029 RMK A01 T00431037  RH  056%=      5-min Rain = 0
KLE1 200030Z 00006KT 04/M04 A3029 RMK A01 T00421037  RH  056%=      5-min Rain = 0
KLE1 200031Z 00006KT 04/M04 A3029 RMK A01 T00421037  RH  056%=      5-min Rain = 0
KLE1 200032Z 00006KT 04/M04 A3029 RMK A01 T00421037  RH  057%=      5-min Rain = 0
KLE1 200033Z 00005KT 04/M04 A3029 RMK A01 T00411037  RH  057%=      5-min Rain = 0
KLE1 200034Z 00005KT 04/M04 A3029 RMK A01 T00411037  RH  057%=      5-min Rain = 0
KLE1 200035Z 01005KT 04/M04 A3029 RMK A01 T00411037  RH  057%=      5-min Rain = 0
KLE1 200036Z 01005KT 04/M04 A3028 RMK A01 T00411037  RH  057%=      5-min Rain = 0
KLE1 200037Z 01005KT 04/M04 A3028 RMK A01 T00401037  RH  057%=      5-min Rain = 0
KLE1 200038Z 01005KT 04/M04 A3029 RMK A01 T00411037  RH  057%=      5-min Rain = 0
KLE1 200039Z 01005KT 04/M04 A3029 RMK A01 T00411037  RH  057%=      5-min Rain = 0
KLE1 200040Z 01006KT 04/M04 A3029 RMK A01 T00401037  RH  057%=      5-min Rain = 0
KLE1 200041Z 02006KT 04/M04 A3029 RMK A01 T00411037  RH  057%=      5-min Rain = 0
KLE1 200042Z 01006KT 04/M04 A3029 RMK A01 T00411037  RH  057%=      5-min Rain = 0
KLE1 200043Z 01006KT 04/M04 A3029 RMK A01 T00401037  RH  057%=      5-min Rain = 0
KLE1 200044Z 01006KT 04/M04 A3029 RMK A01 T00401038  RH  057%=      5-min Rain = 0
KLE1 200045Z 02006KT 04/M04 A3029 RMK A01 T00391038  RH  057%=      5-min Rain = 0
KLE1 200046Z 02006KT 04/M04 A3029 RMK A01 T00381038  RH  057%=      5-min Rain = 0
KLE1 200047Z 02006KT 04/M04 A3029 RMK A01 T00371038  RH  058%=      5-min Rain = 0
KLE1 200048Z 01006KT 04/M04 A3029 RMK A01 T00371037  RH  058%=      5-min Rain = 0
KLE1 200049Z 01006KT 04/M04 A3029 RMK A01 T00371037  RH  058%=      5-min Rain = 0
KLE1 200050Z 01006KT 04/M04 A3029 RMK A01 T00371037  RH  058%=      5-min Rain = 0
KLE1 200051Z 01006KT 04/M04 A3029 RMK A01 T00381036  RH  058%=      5-min Rain = 0
KLE1 200052Z 01007KT 04/M04 A3029 RMK A01 T00381036  RH  058%=      5-min Rain = 0
KLE1 200053Z 01007KT 04/M04 A3029 RMK A01 T00381036  RH  058%=      5-min Rain = 0
KLE1 200054Z 01007KT 04/M04 A3029 RMK A01 T00381036  RH  058%=      5-min Rain = 0
KLE1 200055Z 01008KT 04/M04 A3029 RMK A01 T00381037  RH  058%=      5-min Rain = 0
KLE1 200056Z 01008KT 04/M04 A3029 RMK A01 T00371037  RH  058%=      5-min Rain = 0
KLE1 200057Z 01008KT 04/M04 A3029 RMK A01 T00371037  RH  059%=      5-min Rain = 0
KLE1 200058Z 01008KT 04/M04 A3029 RMK A01 T00361037  RH  059%=      5-min Rain = 0
KLE1 200059Z 01008KT 04/M04 A3029 RMK A01 T00361037  RH  059%=      5-min Rain = 0
KLE1 200100Z 01008KT 04/M04 A3029 RMK A01 T00361037  RH  059%=      5-min Rain = 0
KLE1 200101Z 01008KT 04/M04 A3029 RMK A01 T00361037  RH  059%=      5-min Rain = 0
KLE1 200102Z 01008KT 04/M04 A3029 RMK A01 T00351037  RH  059%=      5-min Rain = 0
KLE1 200103Z 01008KT 04/M04 A3029 RMK A01 T00351037  RH  059%=      5-min Rain = 0
KLE1 200104Z 01008KT 03/M04 A3029 RMK A01 T00341038  RH  059%=      5-min Rain = 0
KLE1 200105Z 01008KT 03/M04 A3029 RMK A01 T00331038  RH  060%=      5-min Rain = 0
KLE1 200106Z 01008KT 03/M04 A3029 RMK A01 T00331038  RH  060%=      5-min Rain = 0
KLE1 200107Z 01009KT 03/M04 A3029 RMK A01 T00321039  RH  060%=      5-min Rain = 0
KLE1 200108Z 00008KT 03/M04 A3029 RMK A01 T00311038  RH  060%=      5-min Rain = 0
KLE1 200109Z 01008KT 03/M04 A3029 RMK A01 T00311039  RH  060%=      5-min Rain = 0
KLE1 200110Z 01009KT 03/M04 A3029 RMK A01 T00301039  RH  061%=      5-min Rain = 0
KLE1 200111Z 01009KT 03/M04 A3028 RMK A01 T00281040  RH  061%=      5-min Rain = 0
KLE1 200112Z 01010KT 03/M04 A3028 RMK A01 T00281039  RH  061%=      5-min Rain = 0
KLE1 200113Z 01010KT 03/M04 A3028 RMK A01 T00281038  RH  062%=      5-min Rain = 0
KLE1 200114Z 01010KT 03/M04 A3028 RMK A01 T00291038  RH  062%=      5-min Rain = 0
KLE1 200115Z 01010KT 03/M04 A3028 RMK A01 T00291037  RH  062%=      5-min Rain = 0
KLE1 200116Z 01010KT 03/M04 A3028 RMK A01 T00291037  RH  062%=      5-min Rain = 0
KLE1 200117Z 01010KT 03/M04 A3028 RMK A01 T00301037  RH  062%=      5-min Rain = 0
KLE1 200118Z 01010KT 03/M04 A3028 RMK A01 T00301036  RH  062%=      5-min Rain = 0
KLE1 200119Z 01009KT 03/M04 A3028 RMK A01 T00301036  RH  062%=      5-min Rain = 0
KLE1 200120Z 01009KT 03/M04 A3028 RMK A01 T00311036  RH  061%=      5-min Rain = 0
KLE1 200121Z 01009KT 03/M04 A3028 RMK A01 T00311036  RH  062%=      5-min Rain = 0
KLE1 200122Z 01009KT 03/M04 A3028 RMK A01 T00301036  RH  062%=      5-min Rain = 0
KLE1 200123Z 01009KT 03/M04 A3028 RMK A01 T00311036  RH  062%=      5-min Rain = 0
KLE1 200124Z 01009KT 03/M04 A3027 RMK A01 T00311036  RH  061%=      5-min Rain = 0
KLE1 200125Z 01009KT 03/M04 A3027 RMK A01 T00301037  RH  061%=      5-min Rain = 0
KLE1 200126Z 01009KT 03/M04 A3027 RMK A01 T00301037  RH  062%=      5-min Rain = 0
KLE1 200127Z 02008KT 03/M04 A3027 RMK A01 T00291037  RH  062%=      5-min Rain = 0
KLE1 200128Z 02008KT 03/M04 A3027 RMK A01 T00291037  RH  062%=      5-min Rain = 0
KLE1 200129Z 02008KT 03/M04 A3027 RMK A01 T00281037  RH  062%=      5-min Rain = 0
KLE1 200130Z 02008KT 03/M04 A3027 RMK A01 T00281037  RH  062%=      5-min Rain = 0
KLE1 200131Z 02007KT 03/M04 A3027 RMK A01 T00281036  RH  063%=      5-min Rain = 0
KLE1 200132Z 02007KT 03/M04 A3027 RMK A01 T00281036  RH  063%=      5-min Rain = 0
KLE1 200133Z 03006KT 03/M04 A3027 RMK A01 T00281036  RH  063%=      5-min Rain = 0
KLE1 200134Z 03006KT 03/M04 A3027 RMK A01 T00291036  RH  062%=      5-min Rain = 0
KLE1 200135Z 03007KT 03/M04 A3027 RMK A01 T00291037  RH  062%=      5-min Rain = 0
KLE1 200136Z 03007KT 03/M04 A3027 RMK A01 T00291037  RH  062%=      5-min Rain = 0
KLE1 200137Z 03007KT 03/M04 A3027 RMK A01 T00291037  RH  062%=      5-min Rain = 0
KLE1 200138Z 03007KT 03/M04 A3027 RMK A01 T00281037  RH  062%=      5-min Rain = 0
KLE1 200139Z 03007KT 03/M04 A3027 RMK A01 T00281038  RH  062%=      5-min Rain = 0
KLE1 200140Z 03007KT 03/M04 A3027 RMK A01 T00271038  RH  062%=      5-min Rain = 0
KLE1 200141Z 03007KT 03/M04 A3027 RMK A01 T00261038  RH  063%=      5-min Rain = 0
KLE1 200142Z 03007KT 03/M04 A3027 RMK A01 T00251039  RH  063%=      5-min Rain = 0
KLE1 200143Z 04007KT 02/M04 A3027 RMK A01 T00241038  RH  063%=      5-min Rain = 0
KLE1 200144Z 04006KT 02/M04 A3027 RMK A01 T00231038  RH  064%=      5-min Rain = 0
KLE1 200145Z 04006KT 02/M04 A3027 RMK A01 T00231039  RH  064%=      5-min Rain = 0
KLE1 200146Z 05006KT 02/M04 A3027 RMK A01 T00231038  RH  064%=      5-min Rain = 0
KLE1 200147Z 07005KT 02/M04 A3027 RMK A01 T00221038  RH  064%=      5-min Rain = 0
KLE1 200148Z 07005KT 02/M04 A3027 RMK A01 T00201040  RH  064%=      5-min Rain = 0
KLE1 200149Z 07006KT 02/M04 A3027 RMK A01 T00181042  RH  065%=      5-min Rain = 0
KLE1 200150Z 07006KT 02/M04 A3027 RMK A01 T00171042  RH  065%=      5-min Rain = 0
KLE1 200151Z 07006KT 02/M04 A3027 RMK A01 T00151042  RH  066%=      5-min Rain = 0
KLE1 200152Z 06006KT 01/M04 A3027 RMK A01 T00141042  RH  066%=      5-min Rain = 0
KLE1 200153Z 06006KT 01/M04 A3027 RMK A01 T00131042  RH  067%=      5-min Rain = 0
KLE1 200154Z 06006KT 01/M04 A3027 RMK A01 T00131041  RH  067%=      5-min Rain = 0
KLE1 200155Z 05007KT 01/M04 A3027 RMK A01 T00121042  RH  067%=      5-min Rain = 0
KLE1 200156Z 05007KT 01/M04 A3027 RMK A01 T00121041  RH  068%=      5-min Rain = 0
KLE1 200157Z 05007KT 01/M04 A3027 RMK A01 T00121041  RH  068%=      5-min Rain = 0
KLE1 200158Z 05007KT 01/M04 A3027 RMK A01 T00121040  RH  068%=      5-min Rain = 0
KLE1 200159Z 04007KT 01/M04 A3027 RMK A01 T00121040  RH  068%=      5-min Rain = 0
KLE1 200200Z 04007KT 01/M04 A3027 RMK A01 T00131039  RH  068%=      5-min Rain = 0
KLE1 200201Z 04007KT 01/M04 A3027 RMK A01 T00131039  RH  068%=      5-min Rain = 0
KLE1 200202Z 04007KT 01/M04 A3027 RMK A01 T00131040  RH  068%=      5-min Rain = 0
KLE1 200203Z 04007KT 01/M04 A3027 RMK A01 T00131040  RH  068%=      5-min Rain = 0
KLE1 200204Z 04007KT 01/M04 A3027 RMK A01 T00131039  RH  068%=      5-min Rain = 0
KLE1 200205Z 05007KT 01/M04 A3027 RMK A01 T00131039  RH  068%=      5-min Rain = 0
KLE1 200206Z 05007KT 01/M04 A3027 RMK A01 T00131039  RH  068%=      5-min Rain = 0
KLE1 200207Z 05007KT 01/M04 A3027 RMK A01 T00131039  RH  068%=      5-min Rain = 0
KLE1 200208Z 05007KT 01/M04 A3027 RMK A01 T00131039  RH  068%=      5-min Rain = 0
KLE1 200209Z 05007KT 01/M04 A3027 RMK A01 T00131039  RH  069%=      5-min Rain = 0
KLE1 200210Z 05007KT 01/M04 A3027 RMK A01 T00131039  RH  069%=      5-min Rain = 0
KLE1 200211Z 05007KT 01/M04 A3027 RMK A01 T00121039  RH  069%=      5-min Rain = 0
KLE1 200212Z 05007KT 01/M04 A3028 RMK A01 T00121039  RH  069%=      5-min Rain = 0
KLE1 200213Z 06007KT 01/M04 A3028 RMK A01 T00111040  RH  069%=      5-min Rain = 0
KLE1 200214Z 06007KT 01/M04 A3028 RMK A01 T00111039  RH  069%=      5-min Rain = 0
KLE1 200215Z 06007KT 01/M04 A3028 RMK A01 T00111039  RH  069%=      5-min Rain = 0
KLE1 200216Z 07006KT 01/M04 A3028 RMK A01 T00111039  RH  069%=      5-min Rain = 0
KLE1 200217Z 08004KT 01/M04 A3028 RMK A01 T00111039  RH  069%=      5-min Rain = 0
KLE1 200218Z 08005KT 01/M04 A3028 RMK A01 T00101041  RH  069%=      5-min Rain = 0
KLE1 200219Z 08005KT 01/M04 A3028 RMK A01 T00101039  RH  069%=      5-min Rain = 0
KLE1 200220Z 08005KT 01/M04 A3029 RMK A01 T00111039  RH  069%=      5-min Rain = 0
KLE1 200221Z 07005KT 01/M04 A3028 RMK A01 T00101041  RH  069%=      5-min Rain = 0
KLE1 200222Z 07005KT 01/M04 A3028 RMK A01 T00101041  RH  069%=      5-min Rain = 0
KLE1 200223Z 07005KT 01/M04 A3028 RMK A01 T00101041  RH  069%=      5-min Rain = 0
KLE1 200224Z 06005KT 01/M04 A3028 RMK A01 T00091040  RH  069%=      5-min Rain = 0
KLE1 200225Z 06005KT 01/M04 A3029 RMK A01 T00101040  RH  069%=      5-min Rain = 0
KLE1 200226Z 05004KT 01/M04 A3029 RMK A01 T00101040  RH  069%=      5-min Rain = 0
KLE1 200227Z 06004KT 01/M04 A3029 RMK A01 T00111040  RH  069%=      5-min Rain = 0
KLE1 200228Z 06004KT 01/M04 A3029 RMK A01 T00111039  RH  069%=      5-min Rain = 0
KLE1 200229Z 06004KT 01/M04 A3029 RMK A01 T00111040  RH  069%=      5-min Rain = 0
KLE1 200230Z 05004KT 01/M04 A3029 RMK A01 T00111040  RH  069%=      5-min Rain = 0
KLE1 200231Z 06004KT 01/M04 A3029 RMK A01 T00111040  RH  069%=      5-min Rain = 0
KLE1 200232Z 06004KT 01/M04 A3029 RMK A01 T00111040  RH  069%=      5-min Rain = 0
KLE1 200233Z 06003KT 01/M04 A303 RMK A01 T00111040  RH  069%=      5-min Rain = 0
KLE1 200234Z 05003KT 01/M04 A303 RMK A01 T00111040  RH  069%=      5-min Rain = 0
KLE1 200235Z 05003KT 01/M04 A303 RMK A01 T00111040  RH  069%=      5-min Rain = 0
KLE1 200236Z 05003KT 01/M04 A303 RMK A01 T00111040  RH  069%=      5-min Rain = 0
KLE1 200237Z 06003KT 01/M04 A303 RMK A01 T00111040  RH  069%=      5-min Rain = 0
KLE1 200238Z 06003KT 01/M04 A303 RMK A01 T00111039  RH  069%=      5-min Rain = 0
KLE1 200239Z 07003KT 01/M04 A303 RMK A01 T00111039  RH  069%=      5-min Rain = 0
KLE1 200240Z 07003KT 01/M04 A303 RMK A01 T00121039  RH  069%=      5-min Rain = 0
KLE1 200241Z 07003KT 01/M04 A303 RMK A01 T00131038  RH  069%=      5-min Rain = 0
KLE1 200242Z 07004KT 01/M04 A303 RMK A01 T00141038  RH  068%=      5-min Rain = 0
KLE1 200243Z 07004KT 01/M04 A303 RMK A01 T00141038  RH  068%=      5-min Rain = 0
KLE1 200244Z 07004KT 02/M04 A303 RMK A01 T00151038  RH  068%=      5-min Rain = 0
KLE1 200245Z 08004KT 01/M04 A303 RMK A01 T00141039  RH  068%=      5-min Rain = 0
KLE1 200246Z 09004KT 01/M04 A303 RMK A01 T00141039  RH  068%=      5-min Rain = 0
KLE1 200247Z 09003KT 01/M04 A303 RMK A01 T00141038  RH  068%=      5-min Rain = 0
KLE1 200248Z 09004KT 01/M04 A303 RMK A01 T00141038  RH  068%=      5-min Rain = 0
KLE1 200249Z 08004KT 02/M04 A303 RMK A01 T00151037  RH  068%=      5-min Rain = 0
KLE1 200250Z 09005KT 02/M04 A303 RMK A01 T00161038  RH  068%=      5-min Rain = 0
KLE1 200251Z 09005KT 02/M04 A303 RMK A01 T00161038  RH  067%=      5-min Rain = 0
KLE1 200252Z 10005KT 01/M04 A303 RMK A01 T00141040  RH  067%=      5-min Rain = 0
KLE1 200253Z 10005KT 01/M04 A303 RMK A01 T00121041  RH  068%=      5-min Rain = 0
KLE1 200254Z 09005KT 01/M04 A303 RMK A01 T00101041  RH  069%=      5-min Rain = 0
KLE1 200255Z 09005KT 01/M04 A303 RMK A01 T00091041  RH  069%=      5-min Rain = 0
KLE1 200256Z 09005KT 01/M04 A303 RMK A01 T00081041  RH  070%=      5-min Rain = 0
KLE1 200257Z 08005KT 01/M04 A303 RMK A01 T00081040  RH  070%=      5-min Rain = 0
KLE1 200258Z 08005KT 01/M04 A303 RMK A01 T00081040  RH  070%=      5-min Rain = 0
KLE1 200259Z 09005KT 01/M04 A303 RMK A01 T00081040  RH  070%=      5-min Rain = 0
KLE1 200300Z 09004KT 01/M04 A303 RMK A01 T00081040  RH  070%=      5-min Rain = 0
KLE1 200301Z 09005KT 01/M04 A303 RMK A01 T00081040  RH  070%=      5-min Rain = 0
KLE1 200302Z 09005KT 01/M04 A303 RMK A01 T00091040  RH  070%=      5-min Rain = 0
KLE1 200303Z 09005KT 01/M04 A303 RMK A01 T00091040  RH  069%=      5-min Rain = 0
KLE1 200304Z 08005KT 01/M04 A303 RMK A01 T00091041  RH  069%=      5-min Rain = 0
KLE1 200305Z 08006KT 01/M04 A303 RMK A01 T00091041  RH  069%=      5-min Rain = 0
KLE1 200306Z 07006KT 01/M04 A303 RMK A01 T00081041  RH  069%=      5-min Rain = 0
KLE1 200307Z 07006KT 01/M04 A303 RMK A01 T00071041  RH  070%=      5-min Rain = 0
KLE1 200308Z 08006KT 01/M04 A303 RMK A01 T00071041  RH  070%=      5-min Rain = 0
KLE1 200309Z 08006KT 01/M04 A303 RMK A01 T00071041  RH  070%=      5-min Rain = 0
KLE1 200310Z 08007KT 01/M04 A303 RMK A01 T00061041  RH  071%=      5-min Rain = 0
KLE1 200311Z 08007KT 01/M04 A303 RMK A01 T00061041  RH  071%=      5-min Rain = 0
KLE1 200312Z 08007KT 01/M04 A303 RMK A01 T00061041  RH  071%=      5-min Rain = 0
KLE1 200313Z 08006KT 01/M04 A303 RMK A01 T00061040  RH  071%=      5-min Rain = 0
KLE1 200314Z 08006KT 01/M04 A303 RMK A01 T00061040  RH  071%=      5-min Rain = 0
KLE1 200315Z 08006KT 01/M04 A303 RMK A01 T00061041  RH  071%=      5-min Rain = 0
KLE1 200316Z 08005KT 01/M04 A303 RMK A01 T00051042  RH  071%=      5-min Rain = 0
KLE1 200317Z 08005KT 00/M04 A303 RMK A01 T00041043  RH  071%=      5-min Rain = 0
KLE1 200318Z 08005KT 00/M04 A303 RMK A01 T00031043  RH  071%=      5-min Rain = 0
KLE1 200319Z 08005KT 00/M04 A303 RMK A01 T00031043  RH  071%=      5-min Rain = 0
KLE1 200320Z 08004KT 00/M04 A303 RMK A01 T00031042  RH  072%=      5-min Rain = 0
KLE1 200321Z 08005KT 00/M04 A303 RMK A01 T00031042  RH  072%=      5-min Rain = 0
KLE1 200322Z 09005KT 00/M04 A303 RMK A01 T00031042  RH  072%=      5-min Rain = 0
KLE1 200323Z 09006KT 00/M04 A303 RMK A01 T00041042  RH  072%=      5-min Rain = 0
KLE1 200324Z 09007KT 00/M04 A3029 RMK A01 T00031042  RH  071%=      5-min Rain = 0
KLE1 200325Z 08007KT 00/M04 A3029 RMK A01 T00031042  RH  072%=      5-min Rain = 0
KLE1 200326Z 08007KT 00/M04 A3029 RMK A01 T00031042  RH  072%=      5-min Rain = 0
KLE1 200327Z 08007KT 00/M04 A3029 RMK A01 T00021042  RH  072%=      5-min Rain = 0
KLE1 200328Z 08007KT 00/M04 A3029 RMK A01 T00021041  RH  072%=      5-min Rain = 0
KLE1 200329Z 08007KT 00/M04 A3029 RMK A01 T00011042  RH  073%=      5-min Rain = 0
KLE1 200330Z 08007KT 00/04 A3029 RMK A01 T00-00-43  RH  073%=      5-min Rain = 0
KLE1 200331Z 07007KT M00/M04 A3029 RMK A01 T10011043  RH  073%=      5-min Rain = 0
KLE1 200332Z 07007KT M00/M04 A3029 RMK A01 T10011043  RH  073%=      5-min Rain = 0
KLE1 200333Z 07008KT M00/M04 A3029 RMK A01 T10011043  RH  073%=      5-min Rain = 0
KLE1 200334Z 07007KT M00/M04 A3029 RMK A01 T10011043  RH  073%=      5-min Rain = 0
KLE1 200335Z 07007KT M00/M04 A3028 RMK A01 T10011043  RH  073%=      5-min Rain = 0
KLE1 200336Z 07007KT M00/M04 A3028 RMK A01 T10011043  RH  074%=      5-min Rain = 0
KLE1 200337Z 07007KT M00/M04 A3029 RMK A01 T10011043  RH  074%=      5-min Rain = 0
KLE1 200338Z 07006KT M00/M04 A3029 RMK A01 T10011043  RH  074%=      5-min Rain = 0
KLE1 200339Z 08005KT M00/M04 A3029 RMK A01 T10011043  RH  074%=      5-min Rain = 0
KLE1 200340Z 09005KT M00/M04 A3029 RMK A01 T10011042  RH  074%=      5-min Rain = 0
KLE1 200341Z 10004KT 00/04 A3029 RMK A01 T00000-42  RH  073%=      5-min Rain = 0
KLE1 200342Z 11005KT 00/04 A3029 RMK A01 T00000-42  RH  073%=      5-min Rain = 0
KLE1 200343Z 11006KT 00/04 A3029 RMK A01 T00000-43  RH  073%=      5-min Rain = 0
KLE1 200344Z 11007KT 00/04 A3029 RMK A01 T00-00-43  RH  073%=      5-min Rain = 0
KLE1 200345Z 11007KT 00/04 A3029 RMK A01 T00-00-42  RH  073%=      5-min Rain = 0
KLE1 200346Z 11007KT 00/04 A3029 RMK A01 T00-00-42  RH  074%=      5-min Rain = 0
KLE1 200347Z 12006KT 00/04 A3029 RMK A01 T00-00-42  RH  074%=      5-min Rain = 0
KLE1 200348Z 11007KT M00/M04 A3029 RMK A01 T10011042  RH  074%=      5-min Rain = 0
KLE1 200349Z 10008KT M00/M04 A3029 RMK A01 T10011042  RH  074%=      5-min Rain = 0
KLE1 200350Z 09008KT M00/M04 A3028 RMK A01 T10011042  RH  074%=      5-min Rain = 0
KLE1 200351Z 09009KT M00/M04 A3028 RMK A01 T10011042  RH  074%=      5-min Rain = 0
KLE1 200352Z 08008KT M00/M04 A3028 RMK A01 T10011042  RH  074%=      5-min Rain = 0
KLE1 200353Z 07008KT M00/M04 A3028 RMK A01 T10011042  RH  074%=      5-min Rain = 0
KLE1 200354Z 07008KT 00/04 A3028 RMK A01 T00-00-41  RH  074%=      5-min Rain = 0
KLE1 200355Z 07007KT 00/04 A3029 RMK A01 T00-00-42  RH  074%=      5-min Rain = 0
KLE1 200356Z 07006KT 00/04 A3029 RMK A01 T00-00-42  RH  073%=      5-min Rain = 0
KLE1 200357Z 07005KT 00/04 A3029 RMK A01 T00000-42  RH  073%=      5-min Rain = 0
KLE1 200358Z 08005KT 00/04 A3029 RMK A01 T00000-42  RH  073%=      5-min Rain = 0
KLE1 200359Z 09004KT 00/M04 A3029 RMK A01 T00011042  RH  073%=      5-min Rain = 0
KLE1 200400Z 11004KT 00/M04 A303 RMK A01 T00011042  RH  073%=      5-min Rain = 0
KLE1 200401Z 13006KT 00/M04 A303 RMK A01 T00011043  RH  073%=      5-min Rain = 0
KLE1 200402Z 15007KT 00/04 A303 RMK A01 T00-00-44  RH  073%=      5-min Rain = 0
KLE1 200403Z 13009KT M00/M05 A303 RMK A01 T10021045  RH  073%=      5-min Rain = 0
KLE1 200404Z 12008KT M00/M04 A303 RMK A01 T10031044  RH  074%=      5-min Rain = 0
KLE1 200405Z 11007KT M00/M04 A3029 RMK A01 T10031042  RH  074%=      5-min Rain = 0
KLE1 200406Z 10007KT M00/M04 A3029 RMK A01 T10011042  RH  074%=      5-min Rain = 0
KLE1 200407Z 09007KT 00/04 A3029 RMK A01 T00-00-41  RH  074%=      5-min Rain = 0
KLE1 200408Z 10006KT 00/04 A3029 RMK A01 T00-00-42  RH  074%=      5-min Rain = 0
KLE1 200409Z 10005KT 00/04 A3029 RMK A01 T00000-42  RH  073%=      5-min Rain = 0
KLE1 200410Z 12005KT 00/04 A3029 RMK A01 T00000-42  RH  073%=      5-min Rain = 0
KLE1 200411Z 13005KT 00/04 A3029 RMK A01 T00-00-43  RH  073%=      5-min Rain = 0
KLE1 200412Z 13005KT M00/M05 A3029 RMK A01 T10021045  RH  073%=      5-min Rain = 0
KLE1 200413Z 13004KT M00/M05 A3029 RMK A01 T10041045  RH  073%=      5-min Rain = 0
KLE1 200414Z 14005KT M01/M05 A3029 RMK A01 T10051046  RH  074%=      5-min Rain = 0
KLE1 200415Z 16006KT M01/M05 A3029 RMK A01 T10061047  RH  074%=      5-min Rain = 0
KLE1 200416Z 17007KT M01/M05 A3029 RMK A01 T10091048  RH  074%=      5-min Rain = 0
KLE1 200417Z 17009KT M01/M05 A3029 RMK A01 T10111049  RH  075%=      5-min Rain = 0
KLE1 200418Z 17010KT M01/M05 A303 RMK A01 T10121049  RH  076%=      5-min Rain = 0
KLE1 200419Z 16010KT M01/M05 A303 RMK A01 T10131049  RH  077%=      5-min Rain = 0
KLE1 200420Z 16009KT M01/M05 A303 RMK A01 T10131048  RH  077%=      5-min Rain = 0
KLE1 200421Z 15009KT M01/M05 A303 RMK A01 T10121047  RH  077%=      5-min Rain = 0
KLE1 200422Z 15008KT M01/M05 A303 RMK A01 T10111047  RH  076%=      5-min Rain = 0
KLE1 200423Z 14007KT M01/M05 A3029 RMK A01 T10101048  RH  076%=      5-min Rain = 0
KLE1 200424Z 15007KT M01/M05 A3029 RMK A01 T10101048  RH  075%=      5-min Rain = 0
KLE1 200425Z 17008KT M01/M05 A3029 RMK A01 T10091049  RH  075%=      5-min Rain = 0
KLE1 200426Z 18009KT M01/M05 A3029 RMK A01 T10101049  RH  075%=      5-min Rain = 0
KLE1 200427Z 18010KT M01/M05 A3029 RMK A01 T10111049  RH  075%=      5-min Rain = 0
KLE1 200428Z 17010KT M01/M05 A3028 RMK A01 T10121049  RH  076%=      5-min Rain = 0
KLE1 200429Z 16009KT M01/M05 A3028 RMK A01 T10131048  RH  077%=      5-min Rain = 0
KLE1 200430Z 15009KT M01/M05 A3028 RMK A01 T10121048  RH  076%=      5-min Rain = 0
KLE1 200431Z 15008KT M01/M05 A3028 RMK A01 T10111049  RH  076%=      5-min Rain = 0
KLE1 200432Z 15008KT M01/M05 A3028 RMK A01 T10111050  RH  075%=      5-min Rain = 0
KLE1 200433Z 15009KT M01/M05 A3028 RMK A01 T10111051  RH  074%=      5-min Rain = 0
KLE1 200434Z 16008KT M01/M05 A3029 RMK A01 T10101051  RH  074%=      5-min Rain = 0
KLE1 200435Z 17008KT M01/M05 A3029 RMK A01 T10101052  RH  073%=      5-min Rain = 0
KLE1 200436Z 17008KT M01/M05 A3029 RMK A01 T10101052  RH  073%=      5-min Rain = 0
KLE1 200437Z 16007KT M01/M05 A303 RMK A01 T10111052  RH  074%=      5-min Rain = 0
KLE1 200438Z 16007KT M01/M05 A303 RMK A01 T10111052  RH  074%=      5-min Rain = 0
KLE1 200439Z 16007KT M01/M05 A303 RMK A01 T10121052  RH  074%=      5-min Rain = 0
KLE1 200440Z 17007KT M01/M05 A303 RMK A01 T10121053  RH  074%=      5-min Rain = 0
KLE1 200441Z 17006KT M01/M05 A303 RMK A01 T10121053  RH  074%=      5-min Rain = 0
KLE1 200442Z 17006KT M01/M05 A303 RMK A01 T10121053  RH  074%=      5-min Rain = 0
KLE1 200443Z 15005KT M01/M05 A303 RMK A01 T10121053  RH  074%=      5-min Rain = 0
KLE1 200444Z 14006KT M01/M05 A303 RMK A01 T10131054  RH  073%=      5-min Rain = 0
KLE1 200445Z 13006KT M01/M06 A303 RMK A01 T10121055  RH  073%=      5-min Rain = 0
KLE1 200446Z 14006KT M01/M06 A303 RMK A01 T10121056  RH  072%=      5-min Rain = 0
KLE1 200447Z 16006KT M01/M06 A303 RMK A01 T10121056  RH  072%=      5-min Rain = 0
KLE1 200448Z 16007KT M01/M06 A303 RMK A01 T10121056  RH  072%=      5-min Rain = 0
KLE1 200449Z 16007KT M01/M06 A303 RMK A01 T10141056  RH  073%=      5-min Rain = 0
KLE1 200450Z 16007KT M02/M06 A303 RMK A01 T10151056  RH  073%=      5-min Rain = 0
KLE1 200451Z 15007KT M02/M06 A303 RMK A01 T10161057  RH  074%=      5-min Rain = 0
KLE1 200452Z 15007KT M02/M06 A303 RMK A01 T10171057  RH  074%=      5-min Rain = 0
KLE1 200453Z 16007KT M02/M06 A303 RMK A01 T10181057  RH  074%=      5-min Rain = 0
KLE1 200454Z 16006KT M02/M06 A303 RMK A01 T10191057  RH  075%=      5-min Rain = 0
KLE1 200455Z 16005KT M02/M06 A303 RMK A01 T10191057  RH  075%=      5-min Rain = 0
KLE1 200456Z 16005KT M02/M06 A303 RMK A01 T10191057  RH  075%=      5-min Rain = 0
KLE1 200457Z 15005KT M02/M06 A3031 RMK A01 T10181057  RH  075%=      5-min Rain = 0
KLE1 200458Z 16006KT M02/M06 A3031 RMK A01 T10181057  RH  074%=      5-min Rain = 0
KLE1 200459Z 16007KT M02/M06 A3031 RMK A01 T10181058  RH  074%=      5-min Rain = 0
KLE1 200500Z 17007KT M02/M06 A3031 RMK A01 T10181059  RH  073%=      5-min Rain = 0
KLE1 200501Z 16007KT M02/M06 A3031 RMK A01 T10171059  RH  073%=      5-min Rain = 0
KLE1 200502Z 16007KT M02/M06 A3031 RMK A01 T10181059  RH  074%=      5-min Rain = 0
KLE1 200503Z 16006KT M02/M06 A3031 RMK A01 T10181058  RH  074%=      5-min Rain = 0
KLE1 200504Z 16006KT M02/M06 A3031 RMK A01 T10181059  RH  074%=      5-min Rain = 0
KLE1 200505Z 15006KT M02/M06 A3032 RMK A01 T10181059  RH  073%=      5-min Rain = 0
KLE1 200506Z 15006KT M02/M06 A3032 RMK A01 T10181060  RH  073%=      5-min Rain = 0
KLE1 200507Z 15005KT M02/M06 A3032 RMK A01 T10181061  RH  072%=      5-min Rain = 0
KLE1 200508Z 14005KT M02/M06 A3032 RMK A01 T10171061  RH  072%=      5-min Rain = 0
KLE1 200509Z 14006KT M02/M06 A3032 RMK A01 T10161061  RH  072%=      5-min Rain = 0
KLE1 200510Z 14006KT M02/M06 A3031 RMK A01 T10151061  RH  071%=      5-min Rain = 0
KLE1 200511Z 14007KT M02/M06 A303 RMK A01 T10151061  RH  071%=      5-min Rain = 0
KLE1 200512Z 14006KT M01/M06 A303 RMK A01 T10141061  RH  070%=      5-min Rain = 0
KLE1 200513Z 13006KT M02/M06 A303 RMK A01 T10151062  RH  070%=      5-min Rain = 0
KLE1 200514Z 13006KT M02/M06 A303 RMK A01 T10161061  RH  071%=      5-min Rain = 0
KLE1 200515Z 13007KT M02/M06 A303 RMK A01 T10171061  RH  072%=      5-min Rain = 0
KLE1 200516Z 13007KT M02/M06 A303 RMK A01 T10181060  RH  073%=      5-min Rain = 0
KLE1 200517Z 13007KT M02/M06 A303 RMK A01 T10181060  RH  073%=      5-min Rain = 0
KLE1 200518Z 13007KT M02/M06 A303 RMK A01 T10191059  RH  074%=      5-min Rain = 0
KLE1 200519Z 12006KT M02/M06 A3031 RMK A01 T10191059  RH  074%=      5-min Rain = 0
KLE1 200520Z 11004KT M02/M06 A3031 RMK A01 T10211059  RH  075%=      5-min Rain = 0
KLE1 200521Z 10004KT M02/M06 A3031 RMK A01 T10221059  RH  076%=      5-min Rain = 0
KLE1 200522Z 10004KT M02/M06 A3032 RMK A01 T10231059  RH  077%=      5-min Rain = 0
KLE1 200523Z 11004KT M02/M06 A3032 RMK A01 T10231058  RH  077%=      5-min Rain = 0
KLE1 200524Z 12004KT M02/M06 A3032 RMK A01 T10231059  RH  077%=      5-min Rain = 0
KLE1 200525Z 12004KT M02/M06 A3033 RMK A01 T10231059  RH  076%=      5-min Rain = 0
KLE1 200526Z 12004KT M02/M06 A3033 RMK A01 T10221059  RH  076%=      5-min Rain = 0
KLE1 200527Z 12004KT M02/M06 A3033 RMK A01 T10221059  RH  075%=      5-min Rain = 0
KLE1 200528Z 12004KT M02/M06 A3033 RMK A01 T10211060  RH  075%=      5-min Rain = 0
KLE1 200529Z 10004KT M02/M06 A3033 RMK A01 T10201060  RH  074%=      5-min Rain = 0
KLE1 200530Z 11005KT M02/M06 A3033 RMK A01 T10201060  RH  074%=      5-min Rain = 0
KLE1 200531Z 11004KT M02/M06 A3032 RMK A01 T10201061  RH  073%=      5-min Rain = 0
KLE1 200532Z 12004KT M02/M06 A3032 RMK A01 T10201062  RH  073%=      5-min Rain = 0
KLE1 200533Z 12005KT M02/M06 A3032 RMK A01 T10201061  RH  073%=      5-min Rain = 0
KLE1 200534Z 12005KT M02/M06 A3032 RMK A01 T10201061  RH  073%=      5-min Rain = 0
KLE1 200535Z 12006KT M02/M06 A3032 RMK A01 T10201061  RH  073%=      5-min Rain = 0
KLE1 200536Z 12006KT M02/M06 A3032 RMK A01 T10201062  RH  073%=      5-min Rain = 0
KLE1 200537Z 12005KT M02/M06 A3032 RMK A01 T10211063  RH  073%=      5-min Rain = 0
KLE1 200538Z 13006KT M02/M06 A3032 RMK A01 T10221064  RH  073%=      5-min Rain = 0
KLE1 200539Z 13006KT M02/M06 A3032 RMK A01 T10221064  RH  073%=      5-min Rain = 0
KLE1 200540Z 14006KT M02/M06 A3033 RMK A01 T10221063  RH  073%=      5-min Rain = 0
KLE1 200541Z 14005KT M02/M06 A3033 RMK A01 T10231064  RH  073%=      5-min Rain = 0
KLE1 200542Z 14006KT M02/M06 A3033 RMK A01 T10221064  RH  073%=      5-min Rain = 0
KLE1 200543Z 14005KT M02/M06 A3033 RMK A01 T10221063  RH  073%=      5-min Rain = 0
KLE1 200544Z 14006KT M02/M06 A3033 RMK A01 T10211064  RH  073%=      5-min Rain = 0
KLE1 200545Z 14007KT M02/M06 A3032 RMK A01 T10211064  RH  072%=      5-min Rain = 0
KLE1 200546Z 14007KT M02/M07 A3032 RMK A01 T10211065  RH  072%=      5-min Rain = 0
KLE1 200547Z 13007KT M02/M07 A3031 RMK A01 T10211065  RH  072%=      5-min Rain = 0
KLE1 200548Z 13007KT M02/M07 A3032 RMK A01 T10211065  RH  072%=      5-min Rain = 0
KLE1 200549Z 13006KT M02/M07 A3032 RMK A01 T10211065  RH  072%=      5-min Rain = 0
KLE1 200550Z 13006KT M02/M06 A3032 RMK A01 T10211064  RH  072%=      5-min Rain = 0
KLE1 200551Z 13005KT M02/M07 A3032 RMK A01 T10221065  RH  072%=      5-min Rain = 0
KLE1 200552Z 13005KT M02/M07 A3032 RMK A01 T10221065  RH  073%=      5-min Rain = 0
KLE1 200553Z 13006KT M02/M07 A3032 RMK A01 T10231065  RH  073%=      5-min Rain = 0
KLE1 200554Z 13006KT M02/M07 A3032 RMK A01 T10231065  RH  073%=      5-min Rain = 0
KLE1 200555Z 12007KT M02/M07 A3032 RMK A01 T10231066  RH  073%=      5-min Rain = 0
KLE1 200556Z 12006KT M02/M07 A3032 RMK A01 T10241066  RH  073%=      5-min Rain = 0
KLE1 200557Z 12006KT M02/M07 A3032 RMK A01 T10241066  RH  073%=      5-min Rain = 0
KLE1 200558Z 13006KT M03/M07 A3032 RMK A01 T10251066  RH  073%=      5-min Rain = 0
KLE1 200559Z 13007KT M03/M07 A3032 RMK A01 T10261066  RH  074%=      5-min Rain = 0

Page generated in 0.178 seconds.